Flight Track Log - Related Links

Times and Time Zones

All times are in EDT time to prevent confusion due to time zone crossing. See the N662US flight status page for this flight to view local times or setup timezone preferences in your user account.

Time Position Orientation Groundspeed Altitude Reporting Facility
EDT Latitude Longitude Course Direction KTS MPH feet Rate Location/Type
Sun 03:29:17 PM 33.6330 -84.4970 273° West 204 235 2,400  Level FlightAware ADS-B
Sun 03:29:47 PM 33.6360 -84.5350 275° West 232 267 3,100 982 Climbing FlightAware ADS-B
Sun 03:30:12 PM 33.6470 -84.5580 300° West 264 304 3,300 1,350 Climbing FlightAware ADS-B
Sun 03:30:27 PM 33.6740 -84.5780 328° Northwest 280 322 4,000 1,600 Climbing FlightAware ADS-B
Sun 03:30:57 PM 33.7040 -84.5960 333° Northwest 303 349 4,500 1,527 Climbing FlightAware ADS-B
Sun 03:31:22 PM 33.7430 -84.5990 356° North 313 360 5,400 2,291 Climbing FlightAware ADS-B
Sun 03:31:52 PM 33.7890 -84.6000 359° North 319 367 6,600 2,291 Climbing FlightAware ADS-B
Sun 03:32:17 PM 33.8250 -84.5990 North 325 374 7,500 2,291 Climbing FlightAware ADS-B
Sun 03:32:47 PM 33.8710 -84.5890 10° North 331 381 8,700 2,300 Climbing FlightAware ADS-B
Sun 03:33:17 PM 33.9180 -84.5770 12° North 349 402 9,800 1,886 Climbing FlightAware ADS-B
Sun 03:33:57 PM 33.9860 -84.5580 13° North 365 420 10,900 1,725 Climbing FlightAware ADS-B
Sun 03:34:37 PM 34.0520 -84.5390 13° North 368 423 12,100 1,765 Climbing FlightAware ADS-B
Sun 03:35:22 PM 34.1290 -84.5170 13° North 382 440 13,400 1,835 Climbing FlightAware ADS-B
Sun 03:36:02 PM 34.2000 -84.4980 12° North 394 453 14,700 2,136 Climbing FlightAware ADS-B
Sun 03:36:21 PM 34.2400 -84.4916 North 390 449 15,500 1,962 Climbing FlightAware ADS-B
Sun 03:36:54 PM 34.3016 -84.4898 North 397 457 16,400 1,545 Climbing FlightAware ADS-B
Sun 03:37:27 PM 34.3620 -84.4851 North 408 470 17,200 1,429 Climbing FlightAware ADS-B
Sun 03:37:57 PM 34.4199 -84.4807 North 417 480 17,900 1,322 Climbing FlightAware ADS-B
Sun 03:38:26 PM 34.4771 -84.4768 North 424 488 18,500 1,463 Climbing FlightAware ADS-B
Sun 03:38:38 PM 34.5004 -84.4766 360° North 423 487 18,900 1,404 Climbing FlightAware ADS-B
Sun 03:39:13 PM 34.5687 -84.4774 359° North 428 493 19,600 1,235 Climbing FlightAware ADS-B
Sun 03:39:46 PM 34.6343 -84.4803 358° North 433 498 20,300 1,238 Climbing FlightAware ADS-B
Sun 03:40:16 PM 34.6967 -84.4835 358° North 439 505 20,900 984 Climbing FlightAware ADS-B
Sun 03:40:47 PM 34.7607 -84.4882 357° North 449 517 21,300 871 Climbing FlightAware ADS-B
Sun 03:41:18 PM 34.8249 -84.4945 355° North 457 526 21,800 1,180 Climbing FlightAware ADS-B
Sun 03:41:48 PM 34.8887 -84.5012 355° North 458 527 22,500 984 Climbing FlightAware ADS-B
Sun 03:42:19 PM 34.9549 -84.5083 355° North 469 540 22,800 787 Climbing FlightAware ADS-B
Sun 03:42:49 PM 35.0206 -84.5153 355° North 476 548 23,300 984 Climbing FlightAware ADS-B
Sun 03:43:20 PM 35.0882 -84.5219 355° North 480 552 23,800 977 Climbing FlightAware ADS-B
Sun 03:43:32 PM 35.1139 -84.5248 355° North 481 554 24,000 1,065 Climbing FlightAware ADS-B
Sun 03:44:22 PM 35.2245 -84.5521 349° North 481 554 24,900 975 Climbing FlightAware ADS-B
Sun 03:44:52 PM 35.2892 -84.5749 344° North 484 557 25,300 885 Climbing FlightAware ADS-B
Sun 03:45:23 PM 35.3555 -84.5984 344° North 489 563 25,800 787 Climbing FlightAware ADS-B
Sun 03:45:53 PM 35.4215 -84.6215 344° North 493 567 26,100 787 Climbing FlightAware ADS-B
Sun 03:46:24 PM 35.4886 -84.6449 344° North 497 572 26,600 871 Climbing FlightAware ADS-B
Sun 03:46:55 PM 35.5580 -84.6691 344° North 499 574 27,000 787 Climbing FlightAware ADS-B
Sun 03:47:25 PM 35.6253 -84.6925 344° North 501 577 27,400 800 Climbing FlightAware ADS-B
Sun 03:47:55 PM 35.6936 -84.7161 344° North 505 581 27,800 885 Climbing FlightAware ADS-B
Sun 03:48:26 PM 35.7620 -84.7400 344° North 506 582 28,300 857 Climbing FlightAware ADS-B
Sun 03:48:58 PM 35.8356 -84.7654 344° North 508 585 28,700 571 Climbing FlightAware ADS-B
Sun 03:49:29 PM 35.9054 -84.7897 344° North 515 593 28,900 522 Climbing FlightAware ADS-B
Sun 03:50:07 PM 35.9928 -84.8204 344° North 517 595 29,300 618 Climbing FlightAware ADS-B
Sun 03:50:37 PM 36.0625 -84.8448 344° North 520 598 29,600 667 Climbing FlightAware ADS-B
Sun 03:51:10 PM 36.1382 -84.8715 344° North 520 598 30,000 231 Climbing FlightAware ADS-B
Sun 03:51:55 PM 36.2439 -84.9086 344° North 519 597 29,900 -69 Descending FlightAware ADS-B
Sun 03:52:37 PM 36.3407 -84.9427 344° North 518 596 29,900  Level FlightAware ADS-B
Sun 03:53:08 PM 36.4129 -84.9683 344° North 519 597 29,900  Level FlightAware ADS-B
Sun 03:53:40 PM 36.4866 -84.9944 344° North 518 596 29,900  Level FlightAware ADS-B
Sun 03:54:11 PM 36.5593 -85.0203 344° North 519 597 29,900  Level FlightAware ADS-B
Sun 03:54:57 PM 36.6630 -85.0570 344° North 521 600 29,900  Level FlightAware ADS-B
Sun 03:55:05 PM 36.6836 -85.0648 343° North 521 600 29,900  Level FlightAware ADS-B
Sun 03:55:35 PM 36.7538 -85.0899 344° North 522 601 29,900  Level FlightAware ADS-B
Sun 03:56:06 PM 36.8264 -85.1159 344° North 524 603 29,900  Level FlightAware ADS-B
Sun 03:56:45 PM 36.9168 -85.1482 344° North 529 609 29,900 86 Level FlightAware ADS-B
Sun 03:57:16 PM 36.9898 -85.1746 344° North 531 611 30,000  Climbing FlightAware ADS-B
Sun 03:57:46 PM 37.0612 -85.2001 344° North 531 611 29,900 -85 Descending FlightAware ADS-B
Sun 03:58:27 PM 37.1540 -85.2340 344° North 532 612 29,900  Level FlightAware ADS-B
Sun 03:59:07 PM 37.2510 -85.2690 344° North 535 616 29,900  Level FlightAware ADS-B
Sun 03:59:52 PM 37.3560 -85.3070 344° North 536 617 29,900  Level FlightAware ADS-B
Sun 04:00:32 PM 37.4500 -85.3410 344° North 535 616 29,900  Level FlightAware ADS-B
Sun 04:01:12 PM 37.5450 -85.3760 344° North 533 613 29,900  Level FlightAware ADS-B
Sun 04:01:57 PM 37.6550 -85.4160 344° North 530 610 29,900  Level FlightAware ADS-B
Sun 04:02:37 PM 37.7480 -85.4500 344° North 528 608 29,900  Level FlightAware ADS-B
Sun 04:03:17 PM 37.8430 -85.4850 344° North 522 601 29,900  Level FlightAware ADS-B
Sun 04:04:02 PM 37.9440 -85.5220 344° North 515 593 29,900  Level FlightAware ADS-B
Sun 04:04:42 PM 38.0350 -85.5560 344° North 512 589 29,900  Level FlightAware ADS-B
Sun 04:05:27 PM 38.1390 -85.5960 343° North 507 583 29,900  Level FlightAware ADS-B
Sun 04:06:07 PM 38.2260 -85.6370 340° North 503 579 29,900  Level FlightAware ADS-B
Sun 04:06:52 PM 38.3230 -85.6820 340° North 499 574 29,900  Level FlightAware ADS-B
Sun 04:07:32 PM 38.4090 -85.7210 340° North 498 573 29,900  Level FlightAware ADS-B
Sun 04:08:12 PM 38.4960 -85.7610 340° North 498 573 29,900  Level FlightAware ADS-B
Sun 04:08:57 PM 38.5960 -85.8070 340° North 497 572 29,900  Level FlightAware ADS-B
Sun 04:09:37 PM 38.6830 -85.8460 341° North 492 566 29,900  Level FlightAware ADS-B
Sun 04:10:22 PM 38.7750 -85.8880 340° North 486 559 29,900  Level FlightAware ADS-B
Sun 04:10:57 PM 38.8530 -85.9240 340° North 481 554 29,900  Level FlightAware ADS-B
Sun 04:11:37 PM 38.9300 -85.9600 340° North 480 552 29,900  Level FlightAware ADS-B
Sun 04:12:22 PM 39.0280 -86.0050 340° North 476 548 29,900  Level FlightAware ADS-B
Sun 04:13:07 PM 39.1230 -86.0490 340° North 475 547 29,900  Level FlightAware ADS-B
Sun 04:13:47 PM 39.2060 -86.0880 340° North 474 545 29,900  Level FlightAware ADS-B
Sun 04:14:27 PM 39.2870 -86.1260 340° North 474 545 29,900  Level FlightAware ADS-B
Sun 04:15:12 PM 39.3640 -86.1830 330° Northwest 469 540 29,900  Level FlightAware ADS-B
Sun 04:16:02 PM 39.4620 -86.2500 332° Northwest 469 540 29,900  Level FlightAware ADS-B
Sun 04:17:02 PM 39.5760 -86.3310 331° Northwest 469 540 29,900  Level FlightAware ADS-B
Sun 04:17:47 PM 39.6670 -86.3950 332° Northwest 469 540 29,900  Level FlightAware ADS-B
Sun 04:18:27 PM 39.7430 -86.4490 331° Northwest 469 540 29,900  Level FlightAware ADS-B
Sun 04:19:12 PM 39.8310 -86.5120 331° Northwest 469 540 29,900  Level FlightAware ADS-B
Sun 04:19:52 PM 39.9060 -86.5660 331° Northwest 468 539 29,900  Level FlightAware ADS-B
Sun 04:20:27 PM 39.9720 -86.6130 331° Northwest 468 539 29,900  Level FlightAware ADS-B
Sun 04:21:17 PM 40.0600 -86.6770 331° Northwest 467 537 29,900  Level FlightAware ADS-B
Sun 04:21:57 PM 40.1420 -86.7360 331° Northwest 473 544 29,900  Level FlightAware ADS-B
Sun 04:22:42 PM 40.2240 -86.7950 331° Northwest 473 544 29,900  Level FlightAware ADS-B
Sun 04:23:22 PM 40.3050 -86.8540 331° Northwest 478 550 29,900  Level FlightAware ADS-B
Sun 04:24:02 PM 40.3800 -86.9080 331° Northwest 480 552 29,900  Level FlightAware ADS-B
Sun 04:24:52 PM 40.4800 -86.9810 331° Northwest 483 556 29,900  Level FlightAware ADS-B
Sun 04:25:32 PM 40.5600 -87.0390 331° Northwest 482 555 29,900  Level FlightAware ADS-B
Sun 04:26:12 PM 40.6380 -87.0960 331° Northwest 482 555 29,900  Level FlightAware ADS-B
Sun 04:26:52 PM 40.7120 -87.1510 331° Northwest 481 554 29,900  Level FlightAware ADS-B
Sun 04:27:37 PM 40.8040 -87.2180 331° Northwest 480 552 29,900  Level FlightAware ADS-B
Sun 04:28:17 PM 40.8850 -87.2780 331° Northwest 480 552 29,900  Level FlightAware ADS-B
Sun 04:29:02 PM 40.9690 -87.3400 331° Northwest 481 554 29,900  Level FlightAware ADS-B
Sun 04:29:42 PM 41.0460 -87.3980 330° Northwest 482 555 29,900  Level FlightAware ADS-B
Sun 04:30:22 PM 41.1250 -87.4560 331° Northwest 481 554 29,900  Level FlightAware ADS-B
Sun 04:31:07 PM 41.2130 -87.5220 331° Northwest 481 554 29,900  Level FlightAware ADS-B
Sun 04:31:47 PM 41.2910 -87.5800 331° Northwest 480 552 29,900  Level FlightAware ADS-B
Sun 04:32:32 PM 41.3760 -87.6450 330° Northwest 478 550 29,900  Level FlightAware ADS-B
Sun 04:33:12 PM 41.4540 -87.7030 331° Northwest 475 547 29,900  Level FlightAware ADS-B
Sun 04:33:52 PM 41.5320 -87.7610 331° Northwest 470 541 29,900  Level FlightAware ADS-B
Sun 04:34:37 PM 41.6180 -87.8270 330° Northwest 467 537 29,900  Level FlightAware ADS-B
Sun 04:35:17 PM 41.6890 -87.8810 330° Northwest 466 536 29,900  Level FlightAware ADS-B
Sun 04:36:02 PM 41.7750 -87.9460 331° Northwest 467 537 29,900  Level FlightAware ADS-B
Sun 04:36:42 PM 41.8510 -88.0040 330° Northwest 468 539 29,900  Level FlightAware ADS-B
Sun 04:37:27 PM 41.9340 -88.0680 330° Northwest 469 540 29,900  Level FlightAware ADS-B
Sun 04:38:07 PM 42.0120 -88.1280 330° Northwest 468 539 29,900  Level FlightAware ADS-B
Sun 04:38:47 PM 42.0830 -88.1820 331° Northwest 469 540 29,900  Level FlightAware ADS-B
Sun 04:39:32 PM 42.1700 -88.2500 330° Northwest 468 539 29,900  Level FlightAware ADS-B
Sun 04:40:12 PM 42.2430 -88.3060 330° Northwest 468 539 29,900  Level FlightAware ADS-B
Sun 04:40:52 PM 42.3180 -88.3640 330° Northwest 468 539 29,900  Level FlightAware ADS-B
Sun 04:41:37 PM 42.4050 -88.4320 330° Northwest 466 536 29,900  Level FlightAware ADS-B
Sun 04:42:17 PM 42.4770 -88.4890 330° Northwest 464 534 29,900  Level FlightAware ADS-B
Sun 04:42:52 PM 42.5390 -88.5370 330° Northwest 464 534 29,900  Level FlightAware ADS-B
Sun 04:43:42 PM 42.6320 -88.6100 330° Northwest 464 534 29,900  Level FlightAware ADS-B
Sun 04:44:52 PM 42.7650 -88.7160 330° Northwest 465 535 29,900  Level FlightAware ADS-B
Sun 04:45:32 PM 42.8410 -88.7750 330° Northwest 465 535 29,900  Level FlightAware ADS-B
Sun 04:46:12 PM 42.9160 -88.8350 330° Northwest 466 536 29,900  Level FlightAware ADS-B
Sun 04:46:57 PM 43.0000 -88.9020 330° Northwest 466 536 29,900  Level FlightAware ADS-B
Sun 04:47:37 PM 43.0760 -88.9630 330° Northwest 467 537 29,900  Level FlightAware ADS-B
Sun 04:48:17 PM 43.1520 -89.0240 330° Northwest 466 536 29,900  Level FlightAware ADS-B
Sun 04:49:02 PM 43.2330 -89.0900 329° Northwest 467 537 29,900  Level FlightAware ADS-B
Sun 04:49:42 PM 43.3070 -89.1500 329° Northwest 466 536 29,900  Level FlightAware ADS-B
Sun 04:50:27 PM 43.3930 -89.2190 330° Northwest 467 537 29,900  Level FlightAware ADS-B
Sun 04:51:07 PM 43.4680 -89.2800 329° Northwest 467 537 29,900  Level FlightAware ADS-B
Sun 04:51:42 PM 43.5320 -89.3320 330° Northwest 466 536 29,900  Level FlightAware ADS-B
Sun 04:52:32 PM 43.6250 -89.4090 329° Northwest 467 537 29,900  Level FlightAware ADS-B
Sun 04:53:32 PM 43.7270 -89.4930 329° Northwest 467 537 29,900  Level FlightAware ADS-B
Sun 04:54:12 PM 43.8050 -89.5570 329° Northwest 466 536 29,900  Level FlightAware ADS-B
Sun 04:54:52 PM 43.8830 -89.6220 329° Northwest 465 535 29,900  Level FlightAware ADS-B
Sun 04:55:37 PM 43.9640 -89.6910 328° Northwest 466 536 29,900  Level FlightAware ADS-B
Sun 04:56:17 PM 44.0440 -89.7560 330° Northwest 466 536 29,900  Level FlightAware ADS-B
Sun 04:56:52 PM 44.1030 -89.8050 329° Northwest 467 537 29,900  Level FlightAware ADS-B
Sun 04:57:37 PM 44.1780 -89.8700 328° Northwest 467 537 29,900  Level FlightAware ADS-B
Sun 04:58:32 PM 44.2870 -89.9610 329° Northwest 468 539 29,900  Level FlightAware ADS-B
Sun 04:59:22 PM 44.3650 -90.0290 328° Northwest 468 539 29,900  Level FlightAware ADS-B
Sun 04:59:52 PM 44.4350 -90.0850 330° Northwest 469 540 29,900  Level FlightAware ADS-B
Sun 05:00:37 PM 44.5110 -90.1520 328° Northwest 469 540 29,900  Level FlightAware ADS-B
Sun 05:01:27 PM 44.5900 -90.2210 328° Northwest 469 540 29,900  Level FlightAware ADS-B
Sun 05:02:07 PM 44.6520 -90.2760 328° Northwest 469 540 29,900  Level FlightAware ADS-B
Sun 05:02:47 PM 44.7150 -90.3310 328° Northwest 469 540 29,900  Level FlightAware ADS-B
Sun 05:03:47 PM 44.8710 -90.4610 329° Northwest 473 544 29,900  Level FlightAware ADS-B
Sun 05:04:27 PM 44.9550 -90.5330 329° Northwest 472 543 29,900  Level FlightAware ADS-B
Sun 05:05:12 PM 45.0360 -90.6030 329° Northwest 472 543 29,900  Level FlightAware ADS-B
Sun 05:05:52 PM 45.1110 -90.6690 328° Northwest 470 541 29,900  Level FlightAware ADS-B
Sun 05:06:32 PM 45.1860 -90.7340 329° Northwest 470 541 29,900  Level FlightAware ADS-B
Sun 05:07:17 PM 45.2700 -90.8090 328° Northwest 469 540 29,900  Level FlightAware ADS-B
Sun 05:07:57 PM 45.3400 -90.8710 328° Northwest 468 539 29,900  Level FlightAware ADS-B
Sun 05:08:42 PM 45.4220 -90.9440 328° Northwest 468 539 29,900  Level FlightAware ADS-B
Sun 05:09:22 PM 45.4980 -91.0110 328° Northwest 469 540 29,900  Level FlightAware ADS-B
Sun 05:10:07 PM 45.5790 -91.0830 328° Northwest 468 539 29,900  Level FlightAware ADS-B
Sun 05:10:47 PM 45.6540 -91.1510 328° Northwest 468 539 29,900  Level FlightAware ADS-B
Sun 05:11:27 PM 45.7290 -91.2180 328° Northwest 467 537 29,900  Level FlightAware ADS-B
Sun 05:12:12 PM 45.8110 -91.2920 328° Northwest 468 539 29,900  Level FlightAware ADS-B
Sun 05:12:52 PM 45.8830 -91.3570 328° Northwest 469 540 29,900  Level FlightAware ADS-B
Sun 05:13:32 PM 45.9570 -91.4240 328° Northwest 467 537 29,900  Level FlightAware ADS-B
Sun 05:14:17 PM 46.0400 -91.5000 328° Northwest 465 535 29,900  Level FlightAware ADS-B
Sun 05:14:57 PM 46.1130 -91.5670 328° Northwest 464 534 29,900  Level FlightAware ADS-B
Sun 05:15:37 PM 46.1860 -91.6340 328° Northwest 464 534 29,900  Level FlightAware ADS-B
Sun 05:16:22 PM 46.2650 -91.7070 327° Northwest 463 533 29,900  Level FlightAware ADS-B
Sun 05:17:02 PM 46.3380 -91.7740 328° Northwest 462 532 29,900  Level FlightAware ADS-B
Sun 05:17:47 PM 46.4190 -91.8500 327° Northwest 461 531 29,900  Level FlightAware ADS-B
Sun 05:18:27 PM 46.4960 -91.9100 332° Northwest 468 539 29,900  Level FlightAware ADS-B
Sun 05:19:12 PM 46.5810 -91.9650 336° Northwest 469 540 29,900  Level FlightAware ADS-B
Sun 05:19:52 PM 46.6610 -92.0200 335° Northwest 469 540 29,900  Level FlightAware ADS-B
Sun 05:20:32 PM 46.7390 -92.0750 334° Northwest 468 539 29,900  Level FlightAware ADS-B
Sun 05:21:17 PM 46.8280 -92.1400 333° Northwest 470 541 29,900  Level FlightAware ADS-B
Sun 05:21:57 PM 46.9080 -92.1950 335° Northwest 471 542 29,900  Level FlightAware ADS-B
Sun 05:22:37 PM 46.9870 -92.2500 335° Northwest 469 540 29,900  Level FlightAware ADS-B
Sun 05:23:22 PM 47.0710 -92.3140 333° Northwest 467 537 29,900  Level FlightAware ADS-B
Sun 05:24:02 PM 47.1450 -92.3770 330° Northwest 466 536 29,900  Level FlightAware ADS-B
Sun 05:24:47 PM 47.2310 -92.4520 329° Northwest 466 536 29,900  Level FlightAware ADS-B
Sun 05:25:27 PM 47.3060 -92.5170 330° Northwest 466 536 29,900  Level FlightAware ADS-B
Sun 05:26:07 PM 47.3810 -92.5830 329° Northwest 466 536 29,900  Level FlightAware ADS-B
Sun 05:26:52 PM 47.4610 -92.6530 329° Northwest 467 537 29,900  Level FlightAware ADS-B
Sun 05:27:32 PM 47.5360 -92.7190 329° Northwest 468 539 29,900  Level FlightAware ADS-B
Sun 05:28:17 PM 47.6210 -92.7940 329° Northwest 468 539 29,900  Level FlightAware ADS-B
Sun 05:28:57 PM 47.6970 -92.8620 329° Northwest 469 540 29,900  Level FlightAware ADS-B
Sun 05:29:37 PM 47.7680 -92.9240 330° Northwest 470 541 29,900  Level FlightAware ADS-B
Sun 05:30:22 PM 47.8530 -93.0000 329° Northwest 471 542 29,900  Level FlightAware ADS-B
Sun 05:31:02 PM 47.9250 -93.0640 329° Northwest 471 542 29,900  Level FlightAware ADS-B
Sun 05:31:42 PM 47.9910 -93.1250 328° Northwest 471 542 29,900  Level FlightAware ADS-B
Sun 05:32:22 PM 48.0530 -93.1840 328° Northwest 471 542 29,900  Level FlightAware ADS-B
Sun 05:33:02 PM 48.1160 -93.2430 328° Northwest 471 542 29,900  Level FlightAware ADS-B
Sun 05:33:52 PM 48.1950 -93.3160 328° Northwest 471 542 29,900  Level FlightAware ADS-B
Sun 05:34:32 PM 48.2580 -93.3750 328° Northwest 471 542 29,900  Level FlightAware ADS-B
Sun 05:35:17 PM 48.3914 -93.4769 328° Northwest 473 544 29,900  Level Minneapolis Center
Sun 05:36:19 PM 48.5264 -93.6000 329° Northwest 473 544 29,900 146 Level Minneapolis Center
Sun 05:37:20 PM 48.6375 -93.7022 329° Northwest 472 543 30,200 634 Climbing Minneapolis Center
Sun 05:38:22 PM 48.7511 -93.8064 329° Northwest 476 548 31,200 829 Climbing Minneapolis Center
Sun 05:39:23 PM 48.8406 -93.8892 329° Northwest 475 547 31,900 341 Climbing Minneapolis Center
Sun 05:40:25 PM 48.9753 -94.0131 329° Northwest 474 545 31,900  Level Minneapolis Center
Sun 05:41:31 PM 49.0833 -94.1333 324° Northwest 470 541 31,900  Level Winnipeg Center
Sun 05:42:31 PM 49.2167 -94.2333 334° Northwest 470 541 31,900  Level Winnipeg Center
Sun 05:43:31 PM 49.3167 -94.3167 331° Northwest 470 541 31,900  Level Winnipeg Center
Sun 05:44:31 PM 49.4333 -94.4500 323° Northwest 480 552 31,900  Level Winnipeg Center
Sun 05:45:31 PM 49.5333 -94.5500 327° Northwest 480 552 31,900  Level Winnipeg Center
Sun 05:46:31 PM 49.6500 -94.6667 327° Northwest 470 541 31,900  Level Winnipeg Center
Sun 05:47:31 PM 49.7500 -94.7667 327° Northwest 470 541 31,900  Level Winnipeg Center
Sun 05:48:31 PM 49.8833 -94.8667 334° Northwest 480 552 31,900  Level Winnipeg Center
Sun 05:49:31 PM 50.0000 -94.9833 327° Northwest 480 552 31,900  Level Winnipeg Center
Sun 05:50:31 PM 50.1167 -95.0833 331° Northwest 480 552 31,900  Level Winnipeg Center
Sun 05:51:31 PM 50.2167 -95.2167 320° Northwest 470 541 31,900  Level Winnipeg Center
Sun 05:52:31 PM 50.3333 -95.3167 331° Northwest 480 552 31,900  Level Winnipeg Center
Sun 05:53:31 PM 50.4333 -95.4167 328° Northwest 480 552 31,900  Level Winnipeg Center
Sun 05:54:31 PM 50.5500 -95.5500 324° Northwest 480 552 31,900  Level Winnipeg Center
Sun 05:55:31 PM 50.6500 -95.6500 328° Northwest 480 552 31,900  Level Winnipeg Center
Sun 05:56:31 PM 50.7833 -95.7500 335° Northwest 470 541 31,900  Level Winnipeg Center
Sun 05:57:32 PM 50.9000 -95.8833 324° Northwest 470 541 31,900  Level Winnipeg Center
Sun 05:58:32 PM 51.0000 -95.9833 328° Northwest 460 529 31,900  Level Winnipeg Center
Sun 05:59:32 PM 51.1000 -96.1167 320° Northwest 460 529 31,900  Level Winnipeg Center
Sun 06:00:32 PM 51.2167 -96.2167 332° Northwest 470 541 31,900  Level Winnipeg Center
Sun 06:01:32 PM 51.3167 -96.3167 328° Northwest 460 529 31,900  Level Winnipeg Center
Sun 06:02:32 PM 51.4167 -96.4333 324° Northwest 470 541 31,900  Level Winnipeg Center
Sun 06:03:32 PM 51.5333 -96.5667 325° Northwest 460 529 31,900  Level Winnipeg Center
Sun 06:04:32 PM 51.6333 -96.6667 328° Northwest 460 529 31,900  Level Winnipeg Center
Sun 06:05:32 PM 51.7333 -96.7833 324° Northwest 460 529 31,900  Level Winnipeg Center
Sun 06:06:32 PM 51.8500 -96.8833 332° Northwest 460 529 31,900  Level Winnipeg Center
Sun 06:07:32 PM 51.9500 -97.0167 321° Northwest 460 529 31,900  Level Winnipeg Center
Sun 06:08:32 PM 52.0500 -97.1333 324° Northwest 450 518 31,900  Level Winnipeg Center
Sun 06:09:32 PM 52.1667 -97.2333 332° Northwest 460 529 31,900  Level Winnipeg Center
Sun 06:10:32 PM 52.2667 -97.3500 324° Northwest 460 529 31,900  Level Winnipeg Center
Sun 06:11:32 PM 52.3833 -97.4833 325° Northwest 450 518 31,900  Level Winnipeg Center
Sun 06:12:32 PM 52.4833 -97.6000 325° Northwest 460 529 31,900  Level Winnipeg Center
Sun 06:13:32 PM 52.5833 -97.7000 329° Northwest 460 529 31,900  Level Winnipeg Center
Sun 06:14:32 PM 52.6833 -97.8167 325° Northwest 460 529 31,900  Level Winnipeg Center
Sun 06:15:32 PM 52.8000 -97.9333 329° Northwest 460 529 31,900  Level Winnipeg Center
Sun 06:16:32 PM 52.9000 -98.0667 321° Northwest 470 541 31,900  Level Winnipeg Center
Sun 06:17:32 PM 53.0000 -98.1833 325° Northwest 450 518 31,900  Level Winnipeg Center
Sun 06:18:32 PM 53.1167 -98.3333 322° Northwest 460 529 31,900  Level Winnipeg Center
Sun 06:18:51 PM 53.1333 -98.3333 360° North 460 529 31,900  Level Edmonton Center
Sun 06:19:32 PM 53.2167 -98.4500 320° Northwest 460 529 31,900  Level Winnipeg Center
Sun 06:20:32 PM 53.3333 -98.5667 329° Northwest 460 529 31,900  Level Winnipeg Center
Sun 06:21:32 PM 53.4333 -98.6833 325° Northwest 460 529 31,900  Level Winnipeg Center
Sun 06:21:51 PM 53.4500 -98.6833 360° North 450 518 31,900  Level Edmonton Center
Sun 06:22:51 PM 53.5500 -98.8333 318° Northwest 470 541 31,900  Level Edmonton Center
Sun 06:23:51 PM 53.6667 -98.9333 333° Northwest 460 529 31,900  Level Edmonton Center
Sun 06:24:51 PM 53.7500 -99.0667 317° Northwest 450 518 31,900  Level Edmonton Center
Sun 06:25:51 PM 53.8667 -99.1833 329° Northwest 450 518 31,900  Level Edmonton Center
Sun 06:26:32 PM 53.9333 -99.3000 314° West 450 518 31,900  Level Winnipeg Center
Sun 06:27:32 PM 54.0500 -99.4500 323° Northwest 460 529 31,900  Level Winnipeg Center
Sun 06:28:32 PM 54.1500 -99.5667 326° Northwest 450 518 31,900  Level Winnipeg Center
Sun 06:29:32 PM 54.2667 -99.6833 330° Northwest 450 518 31,900  Level Winnipeg Center
Sun 06:30:32 PM 54.3667 -99.8000 326° Northwest 450 518 31,900  Level Winnipeg Center
Sun 06:31:32 PM 54.4667 -99.9667 316° Northwest 450 518 31,900  Level Winnipeg Center
Sun 06:32:32 PM 54.5667 -100.0833 326° Northwest 450 518 31,900  Level Winnipeg Center
Sun 06:33:32 PM 54.6500 -100.2000 321° Northwest 460 529 31,900  Level Winnipeg Center
Sun 06:33:51 PM 54.6833 -100.2167 344° North 450 518 31,900  Level Edmonton Center
Sun 06:34:51 PM 54.8000 -100.3500 327° Northwest 450 518 31,900  Level Edmonton Center
Sun 06:35:32 PM 54.8667 -100.4500 319° Northwest 450 518 31,900  Level Winnipeg Center
Sun 06:36:32 PM 54.9833 -100.6167 321° Northwest 450 518 31,900  Level Winnipeg Center
Sun 06:37:32 PM 55.0833 -100.7333 326° Northwest 450 518 31,900  Level Winnipeg Center
Sun 06:38:32 PM 55.1667 -100.8667 318° Northwest 450 518 31,900  Level Winnipeg Center
Sun 06:38:51 PM 55.1833 -100.8667 360° North 450 518 31,900  Level Edmonton Center
Sun 06:39:32 PM 55.2667 -100.9833 321° Northwest 450 518 31,900  Level Winnipeg Center
Sun 06:40:32 PM 55.3667 -101.1167 323° Northwest 450 518 31,900  Level Winnipeg Center
Sun 06:40:51 PM 55.3833 -101.1167 360° North 440 506 31,900  Level Edmonton Center
Sun 06:41:51 PM 55.4833 -101.2500 323° Northwest 440 506 31,900  Level Edmonton Center
Sun 06:42:51 PM 55.6000 -101.3833 327° Northwest 440 506 31,900  Level Edmonton Center
Sun 06:43:32 PM 55.6667 -101.5333 308° West 450 518 31,900  Level Winnipeg Center
Sun 06:44:32 PM 55.7833 -101.6667 327° Northwest 460 529 31,900  Level Winnipeg Center
Sun 06:45:32 PM 55.8833 -101.8000 323° Northwest 450 518 31,900  Level Winnipeg Center
Sun 06:45:51 PM 55.9000 -101.8167 331° Northwest 450 518 31,900  Level Edmonton Center
Sun 06:46:51 PM 55.9833 -101.9333 322° Northwest 450 518 31,900  Level Edmonton Center
Sun 06:47:51 PM 56.0833 -102.0667 323° Northwest 450 518 31,900  Level Edmonton Center
Sun 06:48:51 PM 56.2000 -102.2167 324° Northwest 450 518 31,900  Level Edmonton Center
Sun 06:49:51 PM 56.3000 -102.3667 320° Northwest 460 529 31,900  Level Edmonton Center
Sun 06:50:32 PM 56.3667 -102.5167 309° West 460 529 31,900  Level Winnipeg Center
Sun 06:50:51 PM 56.3833 -102.5333 331° Northwest 450 518 31,900  Level Edmonton Center
Sun 06:51:51 PM 56.4667 -102.7167 309° West 450 518 31,900  Level Edmonton Center
Sun 06:52:32 PM 56.5333 -102.8833 306° West 460 529 31,900  Level Winnipeg Center
Sun 06:53:32 PM 56.6167 -103.0500 312° West 460 529 31,900  Level Winnipeg Center
Sun 06:54:32 PM 56.7000 -103.2500 307° West 460 529 31,900  Level Winnipeg Center
Sun 06:55:32 PM 56.7833 -103.4167 312° West 460 529 31,900  Level Winnipeg Center
Sun 06:56:32 PM 56.8500 -103.5833 306° West 460 529 31,900  Level Winnipeg Center
Sun 06:57:32 PM 56.9333 -103.7667 310° West 460 529 31,900  Level Winnipeg Center
Sun 06:58:32 PM 57.0167 -103.9500 310° West 460 529 31,900  Level Winnipeg Center
Sun 06:59:32 PM 57.1000 -104.1333 310° West 460 529 31,900  Level Winnipeg Center
Sun 07:00:32 PM 57.1833 -104.3167 310° West 460 529 31,900  Level Winnipeg Center
Sun 07:01:32 PM 57.2500 -104.5167 302° West 460 529 31,900  Level Winnipeg Center
Sun 07:02:32 PM 57.3333 -104.6833 313° West 460 529 31,900  Level Winnipeg Center
Sun 07:03:32 PM 57.4167 -104.8833 308° West 460 529 31,900  Level Winnipeg Center
Sun 07:04:32 PM 57.5000 -105.0667 310° West 450 518 31,900  Level Winnipeg Center
Sun 07:05:32 PM 57.5833 -105.2667 308° West 460 529 31,900  Level Winnipeg Center
Sun 07:05:51 PM 57.5833 -105.2833 270° West 450 518 31,900  Level Edmonton Center
Sun 07:06:51 PM 57.6667 -105.4667 310° West 460 529 31,900  Level Edmonton Center
Sun 07:07:32 PM 57.7167 -105.6500 297° West 470 541 31,900  Level Winnipeg Center
Sun 07:08:32 PM 57.8167 -105.8333 316° Northwest 460 529 31,900  Level Winnipeg Center
Sun 07:09:32 PM 57.9000 -106.0333 308° West 460 529 31,900  Level Winnipeg Center
Sun 07:09:51 PM 57.9000 -106.0500 270° West 460 529 31,900  Level Edmonton Center
Sun 07:10:51 PM 57.9833 -106.2333 311° West 460 529 31,900  Level Edmonton Center
Sun 07:11:51 PM 58.0500 -106.4333 302° West 460 529 31,900  Level Edmonton Center
Sun 07:12:51 PM 58.1333 -106.6333 308° West 450 518 31,900  Level Edmonton Center
Sun 07:13:51 PM 58.2167 -106.8333 308° West 460 529 31,900  Level Edmonton Center
Sun 07:14:51 PM 58.2833 -107.0333 302° West 450 518 31,900  Level Edmonton Center
Sun 07:15:51 PM 58.3667 -107.2167 311° West 450 518 31,900  Level Edmonton Center
Sun 07:16:51 PM 58.4500 -107.4167 309° West 450 518 31,900  Level Edmonton Center
Sun 07:17:51 PM 58.5000 -107.6167 296° West 460 529 31,900  Level Edmonton Center
Sun 07:18:51 PM 58.5833 -107.8167 309° West 460 529 31,900  Level Edmonton Center
Sun 07:19:51 PM 58.6667 -108.0333 307° West 460 529 31,900  Level Edmonton Center
Sun 07:20:51 PM 58.7333 -108.2333 303° West 460 529 31,900  Level Edmonton Center
Sun 07:21:51 PM 58.8167 -108.4333 309° West 460 529 31,900  Level Edmonton Center
Sun 07:22:51 PM 58.8833 -108.6333 303° West 460 529 31,900  Level Edmonton Center
Sun 07:23:51 PM 58.9667 -108.8500 307° West 460 529 31,900  Level Edmonton Center
Sun 07:24:51 PM 59.0333 -109.0500 303° West 460 529 31,900  Level Edmonton Center
Sun 07:25:51 PM 59.1000 -109.2500 303° West 460 529 31,900  Level Edmonton Center
Sun 07:26:51 PM 59.1833 -109.4667 307° West 460 529 31,900  Level Edmonton Center
Sun 07:27:51 PM 59.2500 -109.6667 303° West 460 529 31,900  Level Edmonton Center
Sun 07:28:51 PM 59.3167 -109.8833 301° West 460 529 31,900  Level Edmonton Center
Sun 07:29:51 PM 59.4000 -110.1000 307° West 460 529 31,900  Level Edmonton Center
Sun 07:30:51 PM 59.4667 -110.3000 303° West 470 541 31,900  Level Edmonton Center
Sun 07:31:51 PM 59.5333 -110.5167 301° West 460 529 31,900  Level Edmonton Center
Sun 07:32:51 PM 59.6167 -110.7667 303° West 470 541 31,900  Level Edmonton Center
Sun 07:33:51 PM 59.6833 -110.9833 301° West 470 541 31,900  Level Edmonton Center
Sun 07:34:51 PM 59.7500 -111.2000 301° West 460 529 31,900  Level Edmonton Center
Sun 07:35:51 PM 59.8167 -111.4167 302° West 460 529 31,900  Level Edmonton Center
Sun 07:36:51 PM 59.9000 -111.6333 308° West 470 541 31,900  Level Edmonton Center
Sun 07:37:51 PM 59.9667 -111.8500 302° West 470 541 31,900  Level Edmonton Center
Sun 07:38:51 PM 60.0333 -112.0667 302° West 460 529 31,900  Level Edmonton Center
Sun 07:39:51 PM 60.1000 -112.3167 298° West 460 529 31,900  Level Edmonton Center
Sun 07:40:51 PM 60.1500 -112.5333 295° West 460 529 31,900  Level Edmonton Center
Sun 07:41:51 PM 60.1833 -112.7833 285° West 450 518 31,900  Level Edmonton Center
Sun 07:42:51 PM 60.2500 -113.0167 300° West 450 518 31,900  Level Edmonton Center
Sun 07:43:51 PM 60.3000 -113.2667 292° West 450 518 31,900  Level Edmonton Center
Sun 07:44:51 PM 60.3500 -113.4833 295° West 450 518 31,900  Level Edmonton Center
Sun 07:45:51 PM 60.4000 -113.7000 295° West 450 518 31,900  Level Edmonton Center
Sun 07:46:51 PM 60.4500 -113.9667 291° West 450 518 31,900  Level Edmonton Center
Sun 07:47:51 PM 60.4833 -114.1833 287° West 450 518 31,900  Level Edmonton Center
Sun 07:48:51 PM 60.5500 -114.4000 302° West 450 518 31,900  Level Edmonton Center
Sun 07:49:51 PM 60.6000 -114.6667 291° West 450 518 31,900  Level Edmonton Center
Sun 07:50:51 PM 60.6500 -114.8833 295° West 450 518 31,900  Level Edmonton Center
Sun 07:51:51 PM 60.7000 -115.1500 291° West 450 518 31,900  Level Edmonton Center
Sun 07:52:51 PM 60.7500 -115.4167 291° West 450 518 31,900  Level Edmonton Center
Sun 07:53:51 PM 60.8000 -115.6333 295° West 450 518 31,900  Level Edmonton Center
Sun 07:54:51 PM 60.8167 -115.9000 277° West 450 518 31,900  Level Edmonton Center
Sun 07:55:51 PM 60.8667 -116.1167 295° West 450 518 31,900  Level Edmonton Center
Sun 07:56:51 PM 60.9167 -116.3500 294° West 450 518 31,900  Level Edmonton Center
Sun 07:57:51 PM 60.9667 -116.6167 291° West 450 518 31,900  Level Edmonton Center
Sun 07:58:51 PM 61.0167 -116.8500 294° West 450 518 31,900  Level Edmonton Center
Sun 07:59:51 PM 61.0667 -117.1167 291° West 450 518 31,900  Level Edmonton Center
Sun 08:00:51 PM 61.1167 -117.3500 294° West 450 518 31,900  Level Edmonton Center
Sun 08:01:51 PM 61.1667 -117.5833 294° West 450 518 31,900  Level Edmonton Center
Sun 08:02:51 PM 61.1833 -117.8333 278° West 450 518 31,900  Level Edmonton Center
Sun 08:03:51 PM 61.2333 -118.0833 293° West 450 518 31,900  Level Edmonton Center
Sun 08:04:51 PM 61.2833 -118.3500 291° West 450 518 31,900  Level Edmonton Center
Sun 08:05:51 PM 61.3167 -118.6167 285° West 450 518 31,900  Level Edmonton Center
Sun 08:06:51 PM 61.3667 -118.8500 294° West 450 518 31,900  Level Edmonton Center
Sun 08:07:51 PM 61.4000 -119.0833 287° West 450 518 31,900  Level Edmonton Center
Sun 08:08:51 PM 61.4500 -119.3667 290° West 450 518 31,900  Level Edmonton Center
Sun 08:09:51 PM 61.4833 -119.6000 287° West 450 518 31,900  Level Edmonton Center
Sun 08:10:51 PM 61.5333 -119.8667 292° West 450 518 31,900  Level Edmonton Center
Sun 08:11:51 PM 61.5667 -120.1167 286° West 450 518 31,900 250 Level Edmonton Center
Sun 08:12:51 PM 61.6167 -120.3833 292° West 450 518 32,400 500 Climbing Edmonton Center
Sun 08:13:51 PM 61.6500 -120.6333 286° West 450 518 32,900 550 Climbing Edmonton Center
Sun 08:14:51 PM 61.6667 -120.9000 278° West 460 529 33,500 500 Climbing Edmonton Center
Sun 08:15:51 PM 61.7167 -121.1333 294° West 450 518 33,900 200 Climbing Edmonton Center
Sun 08:16:51 PM 61.7500 -121.3833 286° West 460 529 33,900  Level Edmonton Center
Sun 08:17:51 PM 61.7833 -121.6833 283° West 460 529 33,900  Level Edmonton Center
Sun 08:18:51 PM 61.8333 -121.9333 293° West 460 529 33,900  Level Edmonton Center
Sun 08:19:51 PM 61.8667 -122.2167 284° West 460 529 33,900  Level Edmonton Center
Sun 08:20:51 PM 61.9000 -122.4167 290° West 460 529 33,900 Level Edmonton Center
Sun 08:22:00 PM 61.8886 -122.7418 266° West  Level FlightAware Approximate
Sun 08:29:00 PM 62.0331 -124.7035 285° West  Level FlightAware Approximate
Sun 08:30:00 PM 62.0645 -124.9805 284° West  Level FlightAware Approximate
Sun 08:31:00 PM 62.0958 -125.2578 284° West  Level FlightAware Approximate
Sun 08:32:00 PM 62.1266 -125.5356 283° West  Level FlightAware Approximate
Sun 08:33:00 PM 62.1569 -125.8141 283° West  Level FlightAware Approximate
Sun 08:34:00 PM 62.1866 -126.0930 283° West  Level FlightAware Approximate
Sun 08:35:00 PM 62.2157 -126.3726 283° West  Level FlightAware Approximate
Sun 08:36:00 PM 62.2443 -126.6526 282° West  Level FlightAware Approximate
Sun 08:37:00 PM 62.2723 -126.9332 282° West  Level FlightAware Approximate
Sun 08:38:00 PM 62.2997 -127.2143 282° West  Level FlightAware Approximate
Sun 08:39:00 PM 62.3266 -127.4959 282° West  Level FlightAware Approximate
Sun 08:40:00 PM 62.3529 -127.7780 281° West  Level FlightAware Approximate
Sun 08:41:00 PM 62.3786 -128.0606 281° West  Level FlightAware Approximate
Sun 08:42:00 PM 62.4038 -128.3436 281° West  Level FlightAware Approximate
Sun 08:43:00 PM 62.4283 -128.6272 281° West  Level FlightAware Approximate
Sun 08:44:00 PM 62.4524 -128.9111 281° West  Level FlightAware Approximate
Sun 08:45:00 PM 62.4765 -129.1953 281° West  Level FlightAware Approximate
Sun 08:46:00 PM 62.5000 -129.4800 280° West  Level FlightAware Approximate
Sun 08:47:00 PM 62.5230 -129.7651 280° West  Level FlightAware Approximate
Sun 08:48:00 PM 62.5453 -130.0506 280° West  Level FlightAware Approximate
Sun 08:49:00 PM 62.5671 -130.3365 280° West  Level FlightAware Approximate
Sun 08:50:00 PM 62.5883 -130.6229 279° West  Level FlightAware Approximate
Sun 08:51:00 PM 62.6089 -130.9096 279° West  Level FlightAware Approximate
Sun 08:52:00 PM 62.6290 -131.1968 279° West  Level FlightAware Approximate
Sun 08:53:00 PM 62.6484 -131.4843 278° West  Level FlightAware Approximate
Sun 08:54:00 PM 62.6673 -131.7722 278° West  Level FlightAware Approximate
Sun 08:55:00 PM 62.6855 -132.0605 278° West  Level FlightAware Approximate
Sun 08:56:00 PM 62.7032 -132.3491 278° West  Level FlightAware Approximate
Sun 08:57:00 PM 62.7203 -132.6381 277° West  Level FlightAware Approximate
Sun 08:58:00 PM 62.7367 -132.9274 277° West  Level FlightAware Approximate
Sun 08:59:00 PM 62.7525 -133.2170 277° West  Level FlightAware Approximate
Sun 09:00:00 PM 62.7676 -133.5069 277° West  Level FlightAware Approximate
Sun 09:01:00 PM 62.7822 -133.7972 276° West  Level FlightAware Approximate
Sun 09:02:00 PM 62.7961 -134.0877 276° West  Level FlightAware Approximate
Sun 09:03:00 PM 62.8095 -134.3785 276° West  Level FlightAware Approximate
Sun 09:04:00 PM 62.8223 -134.6695 276° West  Level FlightAware Approximate
Sun 09:05:00 PM 62.8344 -134.9608 275° West  Level FlightAware Approximate
Sun 09:06:00 PM 62.8460 -135.2523 275° West  Level FlightAware Approximate
Sun 09:07:00 PM 62.8569 -135.5441 275° West  Level FlightAware Approximate
Sun 09:08:00 PM 62.8673 -135.8360 275° West  Level FlightAware Approximate
Sun 09:09:00 PM 62.8770 -136.1282 274° West  Level FlightAware Approximate
Sun 09:10:00 PM 62.8861 -136.4205 274° West  Level FlightAware Approximate
Sun 09:11:00 PM 62.8947 -136.7130 274° West  Level FlightAware Approximate
Sun 09:12:00 PM 62.9026 -137.0057 274° West  Level FlightAware Approximate
Sun 09:13:00 PM 62.9099 -137.2986 273° West  Level FlightAware Approximate
Sun 09:14:00 PM 62.9166 -137.5916 273° West  Level FlightAware Approximate
Sun 09:15:00 PM 62.9227 -137.8847 273° West  Level FlightAware Approximate
Sun 09:16:00 PM 62.9282 -138.1779 272° West  Level FlightAware Approximate
Sun 09:17:00 PM 62.9331 -138.4712 272° West  Level FlightAware Approximate
Sun 09:18:00 PM 62.9374 -138.7646 272° West  Level FlightAware Approximate
Sun 09:19:00 PM 62.9411 -139.0581 272° West  Level FlightAware Approximate
Sun 09:20:00 PM 62.9441 -139.3517 271° West  Level FlightAware Approximate
Sun 09:21:00 PM 62.9466 -139.6453 271° West  Level FlightAware Approximate
Sun 09:22:00 PM 62.9484 -139.9390 271° West  Level FlightAware Approximate
Sun 09:23:00 PM 62.9496 -140.2327 271° West  Level FlightAware Approximate
Sun 09:24:00 PM 62.9503 -140.5264 270° West  Level FlightAware Approximate
Sun 09:25:00 PM 62.9503 -140.8201 270° West  Level FlightAware Approximate
Sun 09:26:00 PM 62.9482 -141.1137 268° West  Level FlightAware Approximate
Sun 09:27:00 PM 62.9432 -141.4072 268° West  Level FlightAware Approximate
Sun 09:27:02 PM 62.9500 -140.9333 263° West 460 529 34,000  Level Anchorage Center
Sun 09:28:00 PM 62.9375 -141.7006 268° West  Level FlightAware Approximate
Sun 09:28:02 PM 62.9500 -141.2333 270° West 480 552 34,000  Level Anchorage Center
Sun 09:29:00 PM 62.9288 -141.9934 264° West  Level FlightAware Approximate
Sun 09:29:02 PM 62.9500 -141.5333 270° West 470 541 34,000  Level Anchorage Center
Sun 09:30:00 PM 62.9144 -142.2851 264° West  Level FlightAware Approximate
Sun 09:30:02 PM 62.9500 -141.8167 270° West 480 552 34,000  Level Anchorage Center
Sun 09:31:00 PM 62.8993 -142.5765 264° West  Level FlightAware Approximate
Sun 09:31:02 PM 62.9500 -142.1000 270° West 470 541 34,000  Level Anchorage Center
Sun 09:32:00 PM 62.8837 -142.8676 263° West  Level FlightAware Approximate
Sun 09:32:02 PM 62.9500 -142.4000 270° West 470 541 34,000  Level Anchorage Center
Sun 09:33:02 PM 62.9500 -142.6833 270° West 470 541 34,000  Level Anchorage Center
Sun 09:34:02 PM 62.9333 -142.9667 263° West 470 541 34,000  Level Anchorage Center
Sun 09:35:02 PM 62.9333 -143.2667 270° West 470 541 34,000  Level Anchorage Center
Sun 09:36:02 PM 62.9333 -143.5500 270° West 470 541 34,000  Level Anchorage Center
Sun 09:37:03 PM 62.9167 -143.8333 263° West 470 541 34,000  Level Anchorage Center
Sun 09:38:03 PM 62.9167 -144.1333 270° West 480 552 34,000  Level Anchorage Center
Sun 09:39:03 PM 62.9167 -144.4167 270° West 470 541 34,000  Level Anchorage Center
Sun 09:40:03 PM 62.9000 -144.7000 263° West 470 541 34,000  Level Anchorage Center
Sun 09:41:03 PM 62.9000 -145.0000 270° West 480 552 34,000  Level Anchorage Center
Sun 09:42:03 PM 62.8833 -145.2833 263° West 480 552 34,000  Level Anchorage Center
Sun 09:43:03 PM 62.8833 -145.5833 270° West 480 552 34,000  Level Anchorage Center
Sun 09:44:03 PM 62.8667 -145.8667 263° West 470 541 34,000  Level Anchorage Center
Sun 09:45:04 PM 62.8500 -146.1500 263° West 470 541 34,000  Level Anchorage Center
Sun 09:46:03 PM 62.8500 -146.4333 270° West 460 529 34,000  Level Anchorage Center
Sun 09:47:03 PM 62.8333 -146.7167 263° West 460 529 34,000  Level Anchorage Center
Sun 09:48:04 PM 62.8167 -147.0000 263° West 460 529 34,000  Level Anchorage Center
Sun 09:49:04 PM 62.8167 -147.2833 270° West 460 529 34,000  Level Anchorage Center
Sun 09:50:04 PM 62.8000 -147.5667 263° West 460 529 34,000  Level Anchorage Center
Sun 09:51:04 PM 62.7833 -147.8500 263° West 470 541 34,000  Level Anchorage Center
Sun 09:52:04 PM 62.7667 -148.1333 263° West 460 529 34,000 -14 Level Anchorage Center
Sun 09:58:07 PM 62.6830 -149.8410 263° West 466 536 33,900 -15 Descending FlightAware ADS-B
Sun 09:58:52 PM 62.6710 -150.0480 263° West 467 537 33,900  Level FlightAware ADS-B
Sun 09:59:32 PM 62.6590 -150.2390 262° West 466 536 33,900  Level FlightAware ADS-B
Sun 10:00:07 PM 62.6490 -150.3850 262° West 467 537 33,900  Level FlightAware ADS-B
Sun 10:00:57 PM 62.6340 -150.6150 262° West 468 539 33,900  Level FlightAware ADS-B
Sun 10:01:32 PM 62.6230 -150.7840 262° West 467 537 33,900  Level FlightAware ADS-B
Sun 10:02:22 PM 62.6060 -151.0270 261° West 469 540 33,900  Level FlightAware ADS-B
Sun 10:03:02 PM 62.5920 -151.2110 261° West 471 542 33,900  Level FlightAware ADS-B
Sun 10:03:42 PM 62.5790 -151.3900 261° West 472 543 33,900  Level FlightAware ADS-B
Sun 10:04:17 PM 62.5680 -151.5460 261° West 472 543 33,900  Level FlightAware ADS-B
Sun 10:05:47 PM 62.5370 -151.9600 261° West 472 543 33,900 48 Level FlightAware ADS-B
Sun 10:06:22 PM 62.5230 -152.1320 260° West 475 547 34,000  Climbing FlightAware ADS-B
Sun 10:07:22 PM 62.5020 -152.4010 261° West 475 547 33,900 -50 Descending FlightAware ADS-B
Sun 10:08:22 PM 62.4780 -152.6760 259° West 475 547 33,900  Level FlightAware ADS-B
Sun 10:09:02 PM 62.4640 -152.8340 259° West 475 547 33,900  Level FlightAware ADS-B
Sun 10:09:42 PM 62.4490 -152.9930 259° West 475 547 33,900  Level FlightAware ADS-B
Sun 10:10:32 PM 62.4280 -153.2810 261° West 472 543 33,900  Level FlightAware ADS-B
Sun 10:11:12 PM 62.4150 -153.4390 260° West 472 543 33,900  Level FlightAware ADS-B
Sun 10:11:52 PM 62.4020 -153.5970 260° West 472 543 33,900  Level FlightAware ADS-B
Sun 10:12:32 PM 62.3890 -153.7540 260° West 472 543 33,900  Level FlightAware ADS-B
Sun 10:13:12 PM 62.3760 -153.9120 260° West 472 543 33,900  Level FlightAware ADS-B
Sun 10:13:52 PM 62.3630 -154.0700 260° West 472 543 33,900  Level FlightAware ADS-B
Sun 10:14:42 PM 62.3470 -154.2670 260° West 472 543 33,900  Level FlightAware ADS-B
Sun 10:15:22 PM 62.3340 -154.4240 260° West 472 543 33,900  Level FlightAware ADS-B
Sun 10:16:02 PM 62.3210 -154.5820 260° West 472 543 33,900  Level FlightAware ADS-B
Sun 10:16:42 PM 62.3080 -154.7390 260° West 472 543 33,900  Level FlightAware ADS-B
Sun 10:17:22 PM 62.2950 -154.8960 260° West 472 543 33,900  Level FlightAware ADS-B
Sun 10:18:12 PM 62.2790 -155.0930 260° West 472 543 33,900  Level FlightAware ADS-B
Sun 10:18:42 PM 62.2690 -155.2110 260° West 472 543 33,900  Level FlightAware ADS-B
Sun 10:19:22 PM 62.2560 -155.3680 260° West 472 543 33,900  Level FlightAware ADS-B
Sun 10:20:02 PM 62.2430 -155.5250 260° West 472 543 33,900 57 Level FlightAware ADS-B
Sun 10:21:07 PM 62.1333 -156.1333 260° West 470 541 34,000 48 Climbing Anchorage Center
Sun 10:22:07 PM 62.1000 -156.4000 255° West 460 529 34,000  Level Anchorage Center
Sun 10:23:07 PM 62.0667 -156.6833 256° West 460 529 34,000  Level Anchorage Center
Sun 10:24:08 PM 62.0333 -156.9500 255° West 470 541 34,000  Level Anchorage Center
Sun 10:25:08 PM 62.0000 -157.2167 255° West 470 541 34,000  Level Anchorage Center
Sun 10:26:08 PM 61.9667 -157.4833 255° West 470 541 34,000  Level Anchorage Center
Sun 10:27:08 PM 61.9333 -157.7667 256° West 470 541 34,000  Level Anchorage Center
Sun 10:28:08 PM 61.9000 -158.0167 254° West 470 541 34,000  Level Anchorage Center
Sun 10:29:08 PM 61.8667 -158.3500 258° West 470 541 34,000  Level Anchorage Center
Sun 10:30:08 PM 61.8333 -158.6167 255° West 470 541 34,000  Level Anchorage Center
Sun 10:31:08 PM 61.8000 -158.8833 255° West 470 541 34,000  Level Anchorage Center
Sun 10:32:09 PM 61.7667 -159.1167 253° West 470 541 34,000  Level Anchorage Center
Sun 10:33:09 PM 61.7333 -159.3833 255° West 460 529 34,000  Level Anchorage Center
Sun 10:34:09 PM 61.6833 -159.6333 247° West 460 529 34,000 -50 Level Anchorage Center
Sun 10:35:08 PM 61.6500 -159.9500 258° West 470 541 33,900 250 Descending Anchorage Center
Sun 10:36:09 PM 61.6167 -160.2167 255° West 470 541 34,500 793 Climbing Anchorage Center
Sun 10:37:09 PM 61.5667 -160.4833 249° West 480 552 35,500 750 Climbing Anchorage Center
Sun 10:38:09 PM 61.5333 -160.7333 254° West 470 541 36,000 250 Climbing Anchorage Center
Sun 10:39:09 PM 61.5000 -161.0167 256° West 480 552 36,000  Level Anchorage Center
Sun 10:40:09 PM 61.4500 -161.2833 249° West 480 552 36,000  Level Anchorage Center
Sun 10:41:09 PM 61.4167 -161.5500 255° West 470 541 36,000  Level Anchorage Center
Sun 10:42:10 PM 61.3667 -161.8167 249° West 480 552 36,000  Level Anchorage Center
Sun 10:43:10 PM 61.3333 -162.0667 255° West 470 541 36,000  Level Anchorage Center
Sun 10:44:10 PM 61.2833 -162.3333 249° West 470 541 36,000  Level Anchorage Center
Sun 10:45:10 PM 61.2333 -162.6000 249° West 480 552 36,000  Level Anchorage Center
Sun 10:46:10 PM 61.2000 -162.8500 255° West 470 541 36,000  Level Anchorage Center
Sun 10:47:10 PM 61.1500 -163.1167 249° West 470 541 36,000  Level Anchorage Center
Sun 10:48:10 PM 61.1000 -163.3833 249° West 480 552 36,000  Level Anchorage Center
Sun 10:49:10 PM 61.0667 -163.6333 255° West 480 552 36,000  Level Anchorage Center
Sun 10:50:10 PM 61.0167 -163.9000 249° West 480 552 36,000  Level Anchorage Center
Sun 10:51:10 PM 60.9667 -164.1667 249° West 480 552 36,000  Level Anchorage Center
Sun 10:52:11 PM 60.9167 -164.4167 248° West 480 552 36,000  Level Anchorage Center
Sun 10:53:11 PM 60.8667 -164.6833 249° West 490 564 36,000  Level Anchorage Center
Sun 10:54:11 PM 60.8167 -164.9500 249° West 480 552 36,000  Level Anchorage Center
Sun 10:55:11 PM 60.7833 -165.2167 256° West 480 552 36,000  Level Anchorage Center
Sun 10:56:11 PM 60.7333 -165.4833 249° West 480 552 36,000  Level Anchorage Center
Sun 10:57:11 PM 60.7000 -165.7500 256° West 480 552 36,000  Level Anchorage Center
Sun 10:58:11 PM 60.6667 -165.9500 251° West 480 552 36,000  Level Anchorage Center
Sun 10:59:11 PM 60.6167 -166.2167 249° West 480 552 36,000  Level Anchorage Center
Sun 11:00:12 PM 60.5667 -166.4667 248° West 480 552 36,000  Level Anchorage Center
Sun 11:01:12 PM 60.5333 -166.7333 256° West 480 552 36,000  Level Anchorage Center
Sun 11:02:12 PM 60.4833 -167.0000 249° West 480 552 36,000  Level Anchorage Center
Sun 11:03:12 PM 60.4333 -167.2500 248° West 490 564 36,000  Level Anchorage Center
Sun 11:04:16 PM 60.3833 -167.5667 252° West 490 564 36,000  Level Anchorage Center
Sun 11:05:17 PM 60.3333 -167.8333 249° West 490 564 36,000  Level Anchorage Center
Sun 11:06:17 PM 60.2833 -168.1000 249° West 490 564 36,000  Level Anchorage Center
Sun 11:07:17 PM 60.2333 -168.3500 248° West 490 564 36,000  Level Anchorage Center
Sun 11:08:17 PM 60.2000 -168.6000 255° West 480 552 36,000  Level Anchorage Center
Sun 11:09:17 PM 60.1500 -168.8667 249° West 490 564 36,000  Level Anchorage Center
Sun 11:10:17 PM 60.1000 -169.1167 248° West 480 552 36,000  Level Anchorage Center
Sun 11:11:17 PM 60.0500 -169.3667 248° West 480 552 36,000  Level Anchorage Center
Sun 11:12:17 PM 60.0000 -169.6167 248° West 480 552 36,000  Level Anchorage Center
Sun 11:13:17 PM 59.9500 -169.8667 248° West 480 552 36,000  Level Anchorage Center
Sun 11:14:17 PM 59.9000 -170.1167 248° West 480 552 36,000  Level Anchorage Center
Sun 11:15:17 PM 59.8667 -170.3333 253° West 470 541 36,000  Level Anchorage Center
Sun 11:16:17 PM 59.8167 -170.5667 247° West 470 541 36,000  Level Anchorage Center
Sun 11:17:17 PM 59.7500 -170.8167 242° Southwest 480 552 36,000  Level Anchorage Center
Sun 11:18:17 PM 59.7000 -171.0500 247° West 470 541 36,000  Level Anchorage Center
Sun 11:19:17 PM 59.6500 -171.3500 252° West 480 552 36,000  Level Anchorage Center
Sun 11:20:18 PM 59.6000 -171.5500 244° Southwest 470 541 36,000  Level Anchorage Center
Sun 11:21:18 PM 59.5500 -171.7833 247° West 470 541 36,000  Level Anchorage Center
Sun 11:22:18 PM 59.5000 -172.0333 249° West 480 552 36,000  Level Anchorage Center
Sun 11:23:18 PM 59.4500 -172.2667 247° West 470 541 36,000  Level Anchorage Center
Sun 11:24:18 PM 59.4000 -172.5167 249° West 480 552 36,000  Level Anchorage Center
Sun 11:25:18 PM 59.3500 -172.7500 247° West 470 541 36,000  Level Anchorage Center
Sun 11:26:18 PM 59.3000 -173.0000 249° West 470 541 36,000  Level Anchorage Center
Sun 11:27:18 PM 59.2500 -173.2500 249° West 480 552 36,000  Level Anchorage Center
Sun 11:28:18 PM 59.2000 -173.4833 247° West 480 552 36,000  Level Anchorage Center
Sun 11:29:18 PM 59.1500 -173.7333 249° West 480 552 36,000  Level Anchorage Center
Sun 11:30:18 PM 59.1000 -173.9667 247° West 480 552 36,000  Level Anchorage Center
Sun 11:31:18 PM 59.0333 -174.2000 241° Southwest 480 552 36,000  Level Anchorage Center
Sun 11:32:18 PM 58.9833 -174.4500 249° West 470 541 36,000  Level Anchorage Center
Sun 11:33:19 PM 58.9333 -174.6833 248° West 480 552 36,000  Level Anchorage Center
Sun 11:34:18 PM 58.8833 -174.9167 248° West 470 541 36,000  Level Anchorage Center
Sun 11:35:18 PM 58.8333 -175.1500 248° West 480 552 36,000  Level Anchorage Center
Sun 11:36:18 PM 58.7833 -175.4000 249° West 480 552 36,000  Level Anchorage Center
Sun 11:37:18 PM 58.7167 -175.6333 241° Southwest 470 541 36,000  Level Anchorage Center
Sun 11:38:19 PM 58.6833 -175.8500 254° West 460 529 36,000  Level Anchorage Center
Sun 11:39:23 PM 58.6000 -176.1500 242° Southwest 500 575 36,000  Level Anchorage Center
Sun 11:40:24 PM 58.5500 -176.3667 246° West 480 552 36,000  Level Anchorage Center
Sun 11:41:24 PM 58.4833 -176.6000 241° Southwest 480 552 36,000  Level Anchorage Center
Sun 11:42:24 PM 58.4333 -176.8333 248° West 480 552 36,000  Level Anchorage Center
Sun 11:43:24 PM 58.3833 -177.0667 248° West 480 552 36,000  Level Anchorage Center
Sun 11:44:24 PM 58.3167 -177.3000 242° Southwest 470 541 36,000  Level Anchorage Center
Sun 11:47:00 PM 58.2270 -177.6649 245° Southwest  Level FlightAware Approximate
Sun 11:54:00 PM 57.8225 -179.2392 245° Southwest  Level FlightAware Approximate
Sun 11:55:00 PM 57.7631 -179.4612 243° Southwest  Level FlightAware Approximate
Sun 11:56:00 PM 57.7034 -179.6825 243° Southwest  Level FlightAware Approximate
Sun 11:57:00 PM 57.6433 -179.9031 243° Southwest  Level FlightAware Approximate
Sun 11:58:00 PM 57.5820 179.8779 242° Southwest  Level FlightAware Approximate
Sun 11:59:00 PM 57.5197 179.6602 242° Southwest  Level FlightAware Approximate
Mon 12:00:00 AM 57.4571 179.4432 242° Southwest  Level FlightAware Approximate
Mon 12:01:00 AM 57.3941 179.2269 242° Southwest  Level FlightAware Approximate
Mon 12:02:00 AM 57.3307 179.0114 241° Southwest  Level FlightAware Approximate
Mon 12:03:00 AM 57.2669 178.7967 241° Southwest  Level FlightAware Approximate
Mon 12:04:00 AM 57.2028 178.5827 241° Southwest  Level FlightAware Approximate
Mon 12:05:00 AM 57.1384 178.3694 241° Southwest  Level FlightAware Approximate
Mon 12:06:00 AM 57.0735 178.1569 241° Southwest  Level FlightAware Approximate
Mon 12:07:00 AM 57.0083 177.9452 241° Southwest  Level FlightAware Approximate
Mon 12:08:00 AM 56.9428 177.7341 240° Southwest  Level FlightAware Approximate
Mon 12:09:00 AM 56.8769 177.5239 240° Southwest  Level FlightAware Approximate
Mon 12:10:00 AM 56.8106 177.3143 240° Southwest  Level FlightAware Approximate
Mon 12:11:00 AM 56.7442 177.1053 240° Southwest  Level FlightAware Approximate
Mon 12:12:00 AM 56.6775 176.8970 240° Southwest  Level FlightAware Approximate
Mon 12:13:00 AM 56.6104 176.6895 240° Southwest  Level FlightAware Approximate
Mon 12:14:00 AM 56.5429 176.4827 239° Southwest  Level FlightAware Approximate
Mon 12:15:00 AM 56.4751 176.2767 239° Southwest  Level FlightAware Approximate
Mon 12:16:00 AM 56.4070 176.0714 239° Southwest  Level FlightAware Approximate
Mon 12:17:00 AM 56.3385 175.8668 239° Southwest  Level FlightAware Approximate
Mon 12:17:26 AM 56.1833 175.4667 238° Southwest 470 541 36,000  Level Anchorage Center
Mon 12:18:00 AM 56.2697 175.6629 239° Southwest  Level FlightAware Approximate
Mon 12:18:31 AM 56.1167 175.2000 246° West 510 587 35,900  Level Anchorage Center
Mon 12:19:00 AM 56.2006 175.4598 239° Southwest  Level FlightAware Approximate
Mon 12:19:31 AM 56.0500 175.0167 237° Southwest 510 587 36,300  Level Anchorage Center
Mon 12:20:00 AM 56.1311 175.2574 238° Southwest  Level FlightAware Approximate
Mon 12:20:31 AM 55.9667 174.8000 236° Southwest 500 575 37,000  Level Anchorage Center
Mon 12:21:00 AM 56.0613 175.0558 238° Southwest  Level FlightAware Approximate
Mon 12:21:31 AM 55.9000 174.6167 237° Southwest 490 564 37,000  Level Anchorage Center
Mon 12:22:00 AM 55.9912 174.8549 238° Southwest  Level FlightAware Approximate
Mon 12:22:31 AM 55.8333 174.3833 243° Southwest 490 564 37,000  Level Anchorage Center
Mon 12:23:31 AM 55.7500 174.1667 236° Southwest 490 564 37,000  Level Anchorage Center
Mon 12:24:31 AM 55.6833 174.0000 235° Southwest 480 552 37,000  Level Anchorage Center
Mon 12:25:31 AM 55.6000 173.7667 238° Southwest 490 564 37,000  Level Anchorage Center
Mon 12:26:31 AM 55.5333 173.5833 237° Southwest 500 575 37,000  Level Anchorage Center
Mon 12:27:31 AM 55.4500 173.3667 236° Southwest 500 575 37,000  Level Anchorage Center
Mon 12:28:32 AM 55.3833 173.1833 237° Southwest 500 575 37,000  Level Anchorage Center
Mon 12:29:31 AM 55.3000 172.9667 236° Southwest 490 564 37,000  Level Anchorage Center
Mon 12:30:32 AM 55.2167 172.7500 236° Southwest 500 575 37,000  Level Anchorage Center
Mon 12:31:32 AM 55.1500 172.5667 238° Southwest 500 575 37,000  Level Anchorage Center
Mon 12:32:32 AM 55.0667 172.3667 234° Southwest 490 564 37,000  Level Anchorage Center
Mon 12:33:32 AM 55.0000 172.1833 238° Southwest 500 575 37,000  Level Anchorage Center
Mon 12:34:32 AM 54.9167 171.9667 236° Southwest 500 575 37,000  Level Anchorage Center
Mon 12:35:32 AM 54.8500 171.8000 235° Southwest 480 552 37,000  Level Anchorage Center
Mon 12:36:32 AM 54.7667 171.5833 236° Southwest 500 575 37,000  Level Anchorage Center
Mon 12:37:32 AM 54.7000 171.4167 235° Southwest 490 564 37,000  Level Anchorage Center
Mon 12:38:32 AM 54.6000 171.2167 229° Southwest 490 564 37,000  Level Anchorage Center
Mon 12:39:32 AM 54.5167 171.0000 237° Southwest 490 564 37,000  Level Anchorage Center
Mon 12:40:32 AM 54.4500 170.8333 236° Southwest 500 575 37,000  Level Anchorage Center
Mon 12:41:33 AM 54.3500 170.6167 232° Southwest 500 575 37,000  Level Anchorage Center
Mon 12:42:32 AM 54.2833 170.4667 233° Southwest 480 552 37,000  Level Anchorage Center
Mon 12:43:32 AM 54.2000 170.2667 235° Southwest 480 552 37,000  Level Anchorage Center
Mon 12:44:33 AM 54.1333 170.1000 236° Southwest 500 575 37,000  Level Anchorage Center
Mon 12:45:33 AM 54.0333 169.8833 232° Southwest 500 575 37,000  Level Anchorage Center
Mon 12:46:33 AM 53.9500 169.7000 232° Southwest 480 552 37,000  Level Anchorage Center
Mon 12:47:33 AM 53.8833 169.5333 236° Southwest 480 552 37,000  Level Anchorage Center
Mon 12:48:33 AM 53.7833 169.3333 230° Southwest 510 587 37,000  Level Anchorage Center
Mon 12:49:33 AM 53.7167 169.1667 236° Southwest 490 564 37,000  Level Anchorage Center
Mon 12:50:33 AM 53.6333 168.9500 237° Southwest 510 587 37,000  Level Anchorage Center
Mon 12:51:33 AM 53.5833 168.7667 245° Southwest 500 575 37,000  Level Anchorage Center
Mon 12:52:33 AM 53.5167 168.5500 243° Southwest 500 575 37,000  Level Anchorage Center
Mon 12:53:33 AM 53.4500 168.3833 236° Southwest 510 587 37,000 Level Anchorage Center
Mon 12:55:00 AM 53.3554 168.1050 240° Southwest  Level FlightAware Approximate
Mon 01:02:00 AM 52.8831 166.7854 240° Southwest  Level FlightAware Approximate
Mon 01:03:00 AM 52.8145 166.5992 239° Southwest  Level FlightAware Approximate
Mon 01:04:00 AM 52.7455 166.4136 239° Southwest  Level FlightAware Approximate
Mon 01:05:00 AM 52.6763 166.2287 238° Southwest  Level FlightAware Approximate
Mon 01:06:00 AM 52.6068 166.0443 238° Southwest  Level FlightAware Approximate
Mon 01:07:00 AM 52.5370 165.8604 238° Southwest  Level FlightAware Approximate
Mon 01:08:00 AM 52.4669 165.6772 238° Southwest  Level FlightAware Approximate
Mon 01:09:00 AM 52.3965 165.4946 238° Southwest  Level FlightAware Approximate
Mon 01:10:00 AM 52.3259 165.3125 238° Southwest  Level FlightAware Approximate
Mon 01:11:00 AM 52.2550 165.1310 237° Southwest  Level FlightAware Approximate
Mon 01:12:00 AM 52.1838 164.9501 237° Southwest  Level FlightAware Approximate
Mon 01:13:00 AM 52.1123 164.7698 237° Southwest  Level FlightAware Approximate
Mon 01:14:00 AM 52.0405 164.5901 237° Southwest  Level FlightAware Approximate
Mon 01:15:00 AM 51.9685 164.4109 237° Southwest  Level FlightAware Approximate
Mon 01:16:00 AM 51.8962 164.2323 237° Southwest  Level FlightAware Approximate
Mon 01:17:00 AM 51.8236 164.0543 237° Southwest  Level FlightAware Approximate
Mon 01:18:00 AM 51.7508 163.8769 237° Southwest  Level FlightAware Approximate
Mon 01:19:00 AM 51.6777 163.7000 236° Southwest  Level FlightAware Approximate
Mon 01:20:00 AM 51.6043 163.5238 236° Southwest  Level FlightAware Approximate
Mon 01:21:00 AM 51.5306 163.3482 236° Southwest  Level FlightAware Approximate
Mon 01:22:00 AM 51.4566 163.1731 236° Southwest  Level FlightAware Approximate
Mon 01:23:00 AM 51.3823 162.9987 236° Southwest  Level FlightAware Approximate
Mon 01:24:00 AM 51.3078 162.8247 236° Southwest  Level FlightAware Approximate
Mon 01:25:00 AM 51.2331 162.6514 235° Southwest  Level FlightAware Approximate
Mon 01:26:00 AM 51.1581 162.4786 235° Southwest  Level FlightAware Approximate
Mon 01:27:00 AM 51.0828 162.3064 235° Southwest  Level FlightAware Approximate
Mon 01:28:00 AM 51.0073 162.1347 235° Southwest  Level FlightAware Approximate
Mon 01:29:00 AM 50.9315 161.9636 235° Southwest  Level FlightAware Approximate
Mon 01:30:00 AM 50.8555 161.7930 235° Southwest  Level FlightAware Approximate
Mon 01:31:00 AM 50.7792 161.6230 235° Southwest  Level FlightAware Approximate
Mon 01:32:00 AM 50.7027 161.4536 235° Southwest  Level FlightAware Approximate
Mon 01:33:00 AM 50.6260 161.2847 234° Southwest  Level FlightAware Approximate
Mon 01:34:00 AM 50.5490 161.1163 234° Southwest  Level FlightAware Approximate
Mon 01:35:00 AM 50.4717 160.9486 234° Southwest  Level FlightAware Approximate
Mon 01:36:00 AM 50.3942 160.7813 234° Southwest  Level FlightAware Approximate
Mon 01:37:00 AM 50.3165 160.6146 234° Southwest  Level FlightAware Approximate
Mon 01:38:00 AM 50.2386 160.4485 234° Southwest  Level FlightAware Approximate
Mon 01:39:00 AM 50.1607 160.2825 234° Southwest  Level FlightAware Approximate
Mon 01:40:00 AM 50.0829 160.1167 234° Southwest  Level FlightAware Approximate
Mon 01:41:00 AM 50.0048 159.9515 234° Southwest  Level FlightAware Approximate
Mon 01:42:00 AM 49.9266 159.7867 234° Southwest  Level FlightAware Approximate
Mon 01:43:00 AM 49.8481 159.6226 233° Southwest  Level FlightAware Approximate
Mon 01:44:00 AM 49.7713 159.4631 233° Southwest  Level FlightAware Approximate
Mon 01:45:00 AM 49.6941 159.3214 233° Southwest  Level FlightAware Approximate
Mon 01:46:00 AM 49.6164 159.1635 233° Southwest  Level FlightAware Approximate
Mon 01:47:00 AM 49.5369 159.0031 233° Southwest  Level FlightAware Approximate
Mon 01:48:00 AM 49.4572 158.8433 233° Southwest  Level FlightAware Approximate
Mon 01:49:00 AM 49.3773 158.6839 232° Southwest  Level FlightAware Approximate
Mon 01:50:00 AM 49.2972 158.5250 232° Southwest  Level FlightAware Approximate
Mon 01:51:00 AM 49.2168 158.3667 232° Southwest  Level FlightAware Approximate
Mon 01:52:00 AM 49.1363 158.2089 232° Southwest  Level FlightAware Approximate
Mon 01:53:00 AM 49.0555 158.0516 232° Southwest  Level FlightAware Approximate
Mon 01:54:00 AM 48.9745 157.8948 232° Southwest  Level FlightAware Approximate
Mon 01:55:00 AM 48.8933 157.7385 232° Southwest  Level FlightAware Approximate
Mon 01:56:00 AM 48.8119 157.5827 232° Southwest  Level FlightAware Approximate
Mon 01:57:00 AM 48.7303 157.4274 232° Southwest  Level FlightAware Approximate
Mon 01:58:00 AM 48.6493 157.2717 232° Southwest  Level FlightAware Approximate
Mon 01:59:00 AM 48.5681 157.1164 232° Southwest  Level FlightAware Approximate
Mon 02:00:00 AM 48.4867 156.9616 232° Southwest  Level FlightAware Approximate
Mon 02:01:00 AM 48.4050 156.8073 231° Southwest  Level FlightAware Approximate
Mon 02:02:00 AM 48.3232 156.6535 231° Southwest  Level FlightAware Approximate
Mon 02:03:00 AM 48.2411 156.5004 231° Southwest  Level FlightAware Approximate
Mon 02:04:00 AM 48.1579 156.3487 231° Southwest  Level FlightAware Approximate
Mon 02:05:00 AM 48.0746 156.1975 231° Southwest  Level FlightAware Approximate
Mon 02:06:00 AM 47.9911 156.0468 230° Southwest  Level FlightAware Approximate
Mon 02:07:00 AM 47.9073 155.8966 230° Southwest  Level FlightAware Approximate
Mon 02:08:00 AM 47.8234 155.7469 230° Southwest  Level FlightAware Approximate
Mon 02:09:00 AM 47.7393 155.5976 230° Southwest  Level FlightAware Approximate
Mon 02:10:00 AM 47.6549 155.4488 230° Southwest  Level FlightAware Approximate
Mon 02:11:00 AM 47.5705 155.3005 230° Southwest  Level FlightAware Approximate
Mon 02:12:00 AM 47.4858 155.1527 230° Southwest  Level FlightAware Approximate
Mon 02:13:00 AM 47.4009 155.0053 230° Southwest  Level FlightAware Approximate
Mon 02:14:00 AM 47.3159 154.8584 230° Southwest  Level FlightAware Approximate
Mon 02:15:00 AM 47.2307 154.7120 230° Southwest  Level FlightAware Approximate
Mon 02:16:00 AM 47.1461 154.5650 230° Southwest  Level FlightAware Approximate
Mon 02:17:00 AM 47.0613 154.4185 230° Southwest  Level FlightAware Approximate
Mon 02:18:00 AM 46.9763 154.2724 230° Southwest  Level FlightAware Approximate
Mon 02:19:00 AM 46.8912 154.1268 229° Southwest  Level FlightAware Approximate
Mon 02:20:00 AM 46.8059 153.9816 229° Southwest  Level FlightAware Approximate
Mon 02:21:00 AM 46.7203 153.8370 229° Southwest  Level FlightAware Approximate
Mon 02:22:00 AM 46.6347 153.6927 229° Southwest  Level FlightAware Approximate
Mon 02:23:00 AM 46.5488 153.5490 229° Southwest  Level FlightAware Approximate
Mon 02:24:00 AM 46.4627 153.4057 229° Southwest  Level FlightAware Approximate
Mon 02:25:00 AM 46.3765 153.2628 229° Southwest  Level FlightAware Approximate
Mon 02:26:00 AM 46.2901 153.1204 229° Southwest  Level FlightAware Approximate
Mon 02:27:00 AM 46.2033 152.9787 228° Southwest  Level FlightAware Approximate
Mon 02:28:00 AM 46.1150 152.8392 228° Southwest  Level FlightAware Approximate
Mon 02:29:00 AM 46.0266 152.7000 228° Southwest  Level FlightAware Approximate
Mon 02:30:00 AM 45.9380 152.5614 227° Southwest  Level FlightAware Approximate
Mon 02:31:00 AM 45.8492 152.4231 227° Southwest  Level FlightAware Approximate
Mon 02:32:00 AM 45.7603 152.2854 227° Southwest  Level FlightAware Approximate
Mon 02:33:00 AM 45.6713 152.1479 227° Southwest  Level FlightAware Approximate
Mon 02:34:00 AM 45.5824 152.0104 227° Southwest  Level FlightAware Approximate
Mon 02:35:00 AM 45.4935 151.8734 227° Southwest  Level FlightAware Approximate
Mon 02:36:00 AM 45.4043 151.7368 227° Southwest  Level FlightAware Approximate
Mon 02:37:00 AM 45.3150 151.6006 227° Southwest  Level FlightAware Approximate
Mon 02:38:00 AM 45.2255 151.4648 227° Southwest  Level FlightAware Approximate
Mon 02:39:00 AM 45.1359 151.3294 227° Southwest  Level FlightAware Approximate
Mon 02:40:00 AM 45.0461 151.1945 227° Southwest  Level FlightAware Approximate
Mon 02:41:00 AM 44.9562 151.0600 227° Southwest  Level FlightAware Approximate
Mon 02:42:00 AM 44.8660 150.9260 227° Southwest  Level FlightAware Approximate
Mon 02:43:00 AM 44.7758 150.7923 226° Southwest  Level FlightAware Approximate
Mon 02:44:00 AM 44.6853 150.6591 226° Southwest  Level FlightAware Approximate
Mon 02:45:00 AM 44.5948 150.5263 226° Southwest  Level FlightAware Approximate
Mon 02:46:00 AM 44.5040 150.3939 226° Southwest  Level FlightAware Approximate
Mon 02:47:00 AM 44.4132 150.2619 226° Southwest  Level FlightAware Approximate
Mon 02:48:00 AM 44.3221 150.1303 226° Southwest  Level FlightAware Approximate
Mon 02:49:00 AM 44.2309 149.9991 226° Southwest  Level FlightAware Approximate
Mon 02:50:00 AM 44.1396 149.8684 226° Southwest  Level FlightAware Approximate
Mon 02:51:00 AM 44.0481 149.7380 226° Southwest  Level FlightAware Approximate
Mon 02:52:00 AM 43.9565 149.6080 226° Southwest  Level FlightAware Approximate
Mon 02:53:00 AM 43.8647 149.4785 226° Southwest  Level FlightAware Approximate
Mon 02:54:00 AM 43.7728 149.3493 225° Southwest  Level FlightAware Approximate
Mon 02:55:00 AM 43.6807 149.2206 225° Southwest  Level FlightAware Approximate
Mon 02:56:00 AM 43.5885 149.0922 225° Southwest  Level FlightAware Approximate
Mon 02:57:00 AM 43.4962 148.9642 225° Southwest  Level FlightAware Approximate
Mon 02:58:00 AM 43.4037 148.8366 225° Southwest  Level FlightAware Approximate
Mon 02:59:00 AM 43.3110 148.7094 225° Southwest  Level FlightAware Approximate
Mon 03:00:00 AM 43.2183 148.5826 225° Southwest  Level FlightAware Approximate
Mon 03:00:17 AM 42.8400 148.1100 225° Southwest 477 549 38,000  Level FlightAware ADS-B
Mon 03:00:57 AM 42.7870 148.0370 225° Southwest 477 549 38,000  Level FlightAware ADS-B
Mon 03:01:00 AM 43.1253 148.4562 225° Southwest  Level FlightAware Approximate
Mon 03:01:37 AM 42.7330 147.9650 224° Southwest 477 549 38,000  Level FlightAware ADS-B
Mon 03:02:17 AM 42.6800 147.8930 225° Southwest 477 549 38,000  Level FlightAware ADS-B
Mon 03:03:07 AM 42.6140 147.8030 225° Southwest 477 549 38,000  Level FlightAware ADS-B
Mon 03:03:47 AM 42.5610 147.7310 225° Southwest 477 549 38,000  Level FlightAware ADS-B
Mon 03:04:27 AM 42.5080 147.6590 225° Southwest 477 549 38,000  Level FlightAware ADS-B
Mon 03:05:07 AM 42.4550 147.5870 225° Southwest 477 549 38,000  Level FlightAware ADS-B
Mon 03:05:47 AM 42.4020 147.5150 225° Southwest 477 549 38,000  Level FlightAware ADS-B
Mon 03:06:37 AM 42.3360 147.4250 225° Southwest 477 549 38,000  Level FlightAware ADS-B
Mon 03:07:17 AM 42.2820 147.3530 225° Southwest 477 549 38,000  Level FlightAware ADS-B
Mon 03:07:57 AM 42.2290 147.2820 225° Southwest 477 549 38,000  Level FlightAware ADS-B
Mon 03:08:37 AM 42.1760 147.2100 225° Southwest 477 549 38,000  Level FlightAware ADS-B
Mon 03:09:17 AM 42.1230 147.1380 225° Southwest 477 549 38,000  Level FlightAware ADS-B
Mon 03:10:47 AM 41.8420 146.7650 225° Southwest 473 544 38,000 -44 Level FlightAware ADS-B
Mon 03:11:32 AM 41.7720 146.6720 225° Southwest 470 541 37,900  Descending FlightAware ADS-B
Mon 03:12:12 AM 41.7100 146.5900 225° Southwest 465 535 38,000 75 Climbing FlightAware ADS-B
Mon 03:12:52 AM 41.6490 146.5100 224° Southwest 463 533 38,000  Level FlightAware ADS-B
Mon 03:13:37 AM 41.5790 146.4180 225° Southwest 468 539 38,000  Level FlightAware ADS-B
Mon 03:14:17 AM 41.5170 146.3370 224° Southwest 470 541 38,000  Level FlightAware ADS-B
Mon 03:15:02 AM 41.4480 146.2470 224° Southwest 473 544 38,000 -71 Level FlightAware ADS-B
Mon 03:15:42 AM 41.3850 146.1640 225° Southwest 473 544 37,900 -75 Descending FlightAware ADS-B
Mon 03:16:22 AM 41.3210 146.0820 224° Southwest 474 545 37,900 71 Level FlightAware ADS-B
Mon 03:17:07 AM 41.2500 145.9910 224° Southwest 475 547 38,000 71 Climbing FlightAware ADS-B
Mon 03:17:47 AM 41.1870 145.9100 224° Southwest 473 544 38,000 -71 Level FlightAware ADS-B
Mon 03:18:32 AM 41.1170 145.8200 224° Southwest 468 539 37,900  Descending FlightAware ADS-B
Mon 03:19:12 AM 41.0550 145.7410 224° Southwest 466 536 38,000 75 Climbing FlightAware ADS-B
Mon 03:19:52 AM 40.9940 145.6640 224° Southwest 465 535 38,000 -71 Level FlightAware ADS-B
Mon 03:20:37 AM 40.9230 145.5740 224° Southwest 464 534 37,900 -71 Descending FlightAware ADS-B
Mon 03:21:17 AM 40.8650 145.5000 224° Southwest 461 531 37,900 71 Level FlightAware ADS-B
Mon 03:22:02 AM 40.7910 145.4080 223° Southwest 461 531 38,000  Climbing FlightAware ADS-B
Mon 03:22:42 AM 40.7310 145.3340 223° Southwest 455 524 37,900  Descending FlightAware ADS-B
Mon 03:23:32 AM 40.6600 145.2450 224° Southwest 462 532 38,000 60 Climbing FlightAware ADS-B
Mon 03:24:22 AM 40.5930 145.1640 223° Southwest 462 532 38,000  Level FlightAware ADS-B
Mon 03:25:02 AM 40.5400 145.0990 223° Southwest 462 532 38,000  Level FlightAware ADS-B
Mon 03:25:42 AM 40.4870 145.0330 223° Southwest 462 532 38,000  Level FlightAware ADS-B
Mon 03:27:07 AM 40.3130 144.8190 223° Southwest 461 531 38,000  Level FlightAware ADS-B
Mon 03:27:57 AM 40.2380 144.7300 222° Southwest 465 535 38,000  Level FlightAware ADS-B
Mon 03:28:47 AM 40.1710 144.6500 222° Southwest 465 535 38,000  Level FlightAware ADS-B
Mon 03:29:27 AM 40.1160 144.5860 222° Southwest 465 535 38,000  Level FlightAware ADS-B
Mon 03:30:07 AM 40.0620 144.5220 222° Southwest 465 535 38,000  Level FlightAware ADS-B
Mon 03:30:47 AM 40.0070 144.4580 222° Southwest 465 535 38,000  Level FlightAware ADS-B
Mon 03:31:27 AM 39.9530 144.3940 222° Southwest 465 535 38,000  Level FlightAware ADS-B
Mon 03:32:07 AM 39.8990 144.3300 222° Southwest 465 535 38,000  Level FlightAware ADS-B
Mon 03:32:57 AM 39.8310 144.2510 222° Southwest 465 535 38,000  Level FlightAware ADS-B
Mon 03:33:37 AM 39.7760 144.1870 222° Southwest 465 535 38,000  Level FlightAware ADS-B
Mon 03:34:17 AM 39.7220 144.1230 222° Southwest 465 535 38,000  Level FlightAware ADS-B
Mon 03:34:57 AM 39.6680 144.0600 222° Southwest 465 535 38,000  Level FlightAware ADS-B
Mon 03:35:47 AM 39.6000 143.9800 222° Southwest 465 535 38,000  Level FlightAware ADS-B
Mon 03:36:27 AM 39.5450 143.9170 221° Southwest 465 535 38,000  Level FlightAware ADS-B
Mon 03:37:07 AM 39.4910 143.8530 222° Southwest 465 535 38,000 -27 Level FlightAware ADS-B
Mon 03:39:00 AM 39.2989 143.6530 219° Southwest  Level FlightAware Approximate
Mon 03:40:00 AM 39.1968 143.5473 219° Southwest  Level FlightAware Approximate
Mon 03:40:07 AM 39.1110 143.4220 219° Southwest 439 505 37,900  Level FlightAware ADS-B
Mon 03:41:17 AM 39.0040 143.3030 221° Southwest 439 505 38,000 55 Climbing FlightAware ADS-B
Mon 03:41:57 AM 38.9510 143.2450 220° Southwest 439 505 38,000 -71 Level FlightAware ADS-B
Mon 03:42:42 AM 38.8600 143.1710 212° Southwest 440 506 37,900 -71 Descending FlightAware ADS-B
Mon 03:43:22 AM 38.8070 143.1140 220° Southwest 440 506 37,900  Level FlightAware ADS-B
Mon 03:44:02 AM 38.7540 143.0570 220° Southwest 440 506 37,900 75 Level FlightAware ADS-B
Mon 03:44:42 AM 38.5650 143.1890 151° Southeast 490 564 38,000 36 Climbing FlightAware ADS-B
Mon 03:46:47 AM 38.2740 143.1520 186° South 496 571 38,000  Level FlightAware ADS-B
Mon 03:48:37 AM 38.0310 143.1230 185° South 497 572 38,000  Level FlightAware ADS-B
Mon 03:49:42 AM 37.8780 143.1040 186° South 499 574 38,000  Level FlightAware ADS-B
Mon 03:50:27 AM 37.7720 143.0920 185° South 500 575 38,000  Level FlightAware ADS-B
Mon 03:51:27 AM 37.6340 143.0760 185° South 503 579 38,000 -40 Level FlightAware ADS-B
Mon 03:52:57 AM 37.4260 143.0510 230° Southwest 497 572 37,900  Descending FlightAware ADS-B
Mon 03:53:00 AM 37.5058 142.8844 230° Southwest  Level Estimated
Mon 03:53:57 AM 37.2910 143.0110 193° South 478 550 38,000  Level FlightAware ADS-B
Mon 03:55:07 AM 37.1470 142.9280 205° Southwest 473 544 36,900 -850 Descending FlightAware ADS-B
Mon 03:55:57 AM 37.0620 142.8700 209° Southwest 476 548 36,300 -809 Descending FlightAware ADS-B
Mon 03:56:57 AM 36.9390 142.7830 209° Southwest 34,700 -836 Descending FlightAware ADS-B
Mon 03:58:42 AM 36.7370 142.6410 209° Southwest 465 535 34,000 -290 Descending FlightAware ADS-B
Mon 03:59:22 AM 36.6720 142.5960 209° Southwest 465 535 34,000  Level FlightAware ADS-B
Mon 04:00:02 AM 36.6080 142.5520 209° Southwest 465 535 34,000  Level FlightAware ADS-B
Mon 04:00:42 AM 36.5440 142.5080 209° Southwest 465 535 34,000  Level FlightAware ADS-B
Mon 04:01:27 AM 36.4260 142.4240 210° Southwest 473 544 34,000  Level FlightAware ADS-B
Mon 04:02:02 AM 36.3670 142.3830 209° Southwest 475 547 34,000 -825 Level FlightAware ADS-B
Mon 04:02:47 AM 36.2680 142.3140 209° Southwest 477 549 32,900 -2,067 Descending FlightAware ADS-B
Mon 04:03:32 AM 36.1870 142.2580 209° Southwest 471 542 30,900 -2,329 Descending FlightAware ADS-B
Mon 04:04:12 AM 36.1090 142.2040 209° Southwest 455 524 29,600 -2,080 Descending FlightAware ADS-B
Mon 04:04:47 AM 36.0520 142.1640 210° Southwest 446 513 28,300 -2,400 Descending FlightAware ADS-B
Mon 04:05:37 AM 35.9620 142.1020 209° Southwest 428 493 26,200 -2,471 Descending FlightAware ADS-B
Mon 04:06:12 AM 35.9030 142.0610 209° Southwest 404 465 24,800 -2,400 Descending FlightAware ADS-B
Mon 04:07:02 AM 35.8250 142.0070 209° Southwest 390 449 22,800 -2,463 Descending FlightAware ADS-B
Mon 04:07:47 AM 35.7520 141.9570 209° Southwest 390 449 20,900 -2,580 Descending FlightAware ADS-B
Mon 04:08:42 AM 35.6650 141.8960 210° Southwest 382 440 18,500 -2,571 Descending FlightAware ADS-B
Mon 04:09:32 AM 35.5870 141.8390 211° Southwest 366 421 16,400 -1,765 Descending FlightAware ADS-B
Mon 04:10:07 AM 35.5610 141.7750 243° Southwest 345 397 16,000 -400 Descending FlightAware ADS-B
Mon 04:10:47 AM 35.5560 141.6990 265° West 338 389 15,900 -1,059 Descending FlightAware ADS-B
Mon 04:11:32 AM 35.5510 141.6130 266° West 336 387 14,500 -1,341 Descending FlightAware ADS-B
Mon 04:12:12 AM 35.5520 141.5400 271° West 333 383 14,000 -750 Descending FlightAware ADS-B
Mon 04:12:52 AM 35.5780 141.4740 296° West 331 381 13,500 -825 Descending FlightAware ADS-B
Mon 04:13:32 AM 35.6100 141.4040 299° West 330 380 12,900 -880 Descending FlightAware ADS-B
Mon 04:14:07 AM 35.6340 141.3500 299° West 330 380 12,400 -825 Descending FlightAware ADS-B
Mon 04:14:52 AM 35.6670 141.2750 298° West 327 376 11,800 -758 Descending FlightAware ADS-B
Mon 04:15:42 AM 35.7040 141.1940 299° West 322 371 11,200 -800 Descending FlightAware ADS-B
Mon 04:16:22 AM 35.7320 141.1300 298° West 310 357 10,600 -706 Descending FlightAware ADS-B
Mon 04:17:07 AM 35.7600 141.0660 298° West 283 326 10,200 -600 Descending FlightAware ADS-B
Mon 04:17:32 AM 35.7750 141.0340 300° West 268 308 9,900 -720 Descending FlightAware ADS-B
Mon 04:17:57 AM 35.7910 140.9980 299° West 257 296 9,600 -600 Descending FlightAware ADS-B
Mon 04:18:42 AM 35.8160 140.9420 299° West 256 295 9,200 -600 Descending FlightAware ADS-B
Mon 04:18:47 AM 35.8200 140.9330 299° West 256 295 9,100 -267 Descending FlightAware ADS-B
Mon 04:19:27 AM 35.8440 140.8820 300° West 257 296 9,000 -100 Descending FlightAware ADS-B
Mon 04:19:47 AM 35.8520 140.8640 299° West 257 296 9,000  Level FlightAware ADS-B
Mon 04:20:07 AM 35.8680 140.8310 301° West 236 272 9,000  Level FlightAware ADS-B
Mon 04:20:37 AM 35.8840 140.7960 299° West 233 268 9,000  Level FlightAware ADS-B
Mon 04:21:02 AM 35.8970 140.7680 300° West 234 269 9,000  Level FlightAware ADS-B
Mon 04:21:27 AM 35.9100 140.7410 301° West 233 268 9,000 -218 Level FlightAware ADS-B
Mon 04:21:57 AM 35.9270 140.7040 300° West 229 264 8,800 -800 Descending FlightAware ADS-B
Mon 04:22:12 AM 35.9350 140.6870 300° West 231 266 8,400 -1,371 Descending FlightAware ADS-B
Mon 04:22:32 AM 35.9440 140.6680 300° West 233 268 8,000 -1,385 Descending FlightAware ADS-B
Mon 04:23:17 AM 35.9680 140.6170 300° West 231 266 6,900 -1,477 Descending FlightAware ADS-B
Mon 04:23:37 AM 35.9780 140.5920 296° West 231 266 6,400 -1,350 Descending FlightAware ADS-B
Mon 04:23:57 AM 35.9800 140.5700 276° West 237 273 6,000 -282 Descending FlightAware ADS-B
Mon 04:25:02 AM 35.9740 140.4850 265° West 200 230 6,000 -71 Level FlightAware ADS-B
Mon 04:25:22 AM 35.9690 140.4630 254° West 190 219 5,900 -933 Descending FlightAware ADS-B
Mon 04:25:47 AM 35.9640 140.4370 257° West 189 217 5,300 -1,200 Descending FlightAware ADS-B
Mon 04:26:27 AM 35.9600 140.3950 263° West 177 204 4,600 -1,200 Descending FlightAware ADS-B
Mon 04:27:12 AM 35.9580 140.3500 267° West 177 204 3,600 -1,292 Descending FlightAware ADS-B
Mon 04:27:32 AM 35.9580 140.3300 270° West 180 207 3,200 -1,200 Descending FlightAware ADS-B
Mon 04:27:52 AM 35.9580 140.3100 270° West 179 206 2,800 -369 Descending FlightAware ADS-B
Mon 04:28:37 AM 35.9330 140.2900 213° Southwest 156 180 2,800  Level FlightAware ADS-B
Mon 04:28:57 AM 35.9200 140.2960 160° South 161 185 2,800  Level FlightAware ADS-B
Mon 04:29:17 AM 35.9070 140.3060 148° Southeast 162 186 2,800 -353 Level FlightAware ADS-B
Mon 04:30:22 AM 35.8650 140.3360 150° Southeast 160 184 2,300 -646 Descending FlightAware ADS-B
Mon 04:31:27 AM 35.8250 140.3640 150° Southeast 142 163 1,400 -821 Descending FlightAware ADS-B
Mon 04:31:57 AM 35.8090 140.3760 149° Southeast 131 151 1,000 -436 Descending FlightAware ADS-B
Mon 04:32:22 AM 35.7970 140.3850 149° Southeast 131 151 1,000  Level FlightAware ADS-B

Login

Don't have an account? Register now (free) for customized features, flight alerts, and more!